Time,TemperatureF,DewpointF,PressureIn,WindDirection,WindDirectionDegrees,WindSpeedMPH,WindSpeedGustMPH,Humidity,HourlyPrecipIn,Conditions,Clouds,dailyrainin,SoftwareType,DateUTC
2014-02-15 00:01:00,35.4,32.5,29.77,ENE,61,0.0,0.0,89,0.00,,,0.01,meteohub,2014-02-15 05:01:00,
2014-02-15 00:06:00,35.2,32.4,29.77,ENE,61,0.0,0.0,89,0.00,,,0.00,meteohub,2014-02-15 05:06:00,
2014-02-15 00:07:00,35.2,32.4,29.77,ENE,61,1.0,0.0,89,0.00,,,0.00,meteohub,2014-02-15 05:07:00,
2014-02-15 00:11:00,35.2,32.5,29.77,ENE,61,0.0,1.0,90,0.00,,,0.00,meteohub,2014-02-15 05:11:00,
2014-02-15 00:12:00,35.2,32.5,29.77,ENE,61,0.0,1.0,90,0.00,,,0.00,meteohub,2014-02-15 05:12:00,
2014-02-15 00:13:00,35.2,32.5,29.77,ENE,61,0.0,1.0,90,0.00,,,0.00,meteohub,2014-02-15 05:13:00,
2014-02-15 00:16:00,35.1,32.2,29.77,ENE,61,0.0,1.0,89,0.00,,,0.00,meteohub,2014-02-15 05:16:00,
2014-02-15 00:17:00,35.1,32.2,29.77,ENE,61,0.0,1.0,89,0.00,,,0.00,meteohub,2014-02-15 05:17:00,
2014-02-15 00:18:00,35.1,32.2,29.77,ENE,61,0.0,1.0,89,0.00,,,0.00,meteohub,2014-02-15 05:18:00,
2014-02-15 00:20:00,34.9,32.0,29.77,ENE,61,0.0,1.0,89,0.00,,,0.00,meteohub,2014-02-15 05:20:00,
2014-02-15 00:21:00,34.7,31.8,29.77,ENE,61,0.0,1.0,89,0.00,,,0.00,meteohub,2014-02-15 05:21:00,
2014-02-15 00:22:00,34.7,31.8,29.77,ENE,61,0.0,1.0,89,0.00,,,0.00,meteohub,2014-02-15 05:22:00,
2014-02-15 00:23:00,34.5,31.6,29.77,ENE,61,0.0,1.0,89,0.00,,,0.00,meteohub,2014-02-15 05:23:00,
2014-02-15 00:25:00,34.3,31.5,29.77,ENE,61,0.0,1.0,89,0.00,,,0.00,meteohub,2014-02-15 05:25:00,
2014-02-15 00:27:00,34.3,31.5,29.77,ENE,61,0.0,1.0,89,0.00,,,0.00,meteohub,2014-02-15 05:27:00,
2014-02-15 00:28:00,34.2,31.3,29.77,ENE,61,0.0,1.0,89,0.00,,,0.00,meteohub,2014-02-15 05:28:00,
2014-02-15 00:29:00,34.2,31.3,29.77,ENE,61,1.0,1.0,89,0.00,,,0.00,meteohub,2014-02-15 05:29:00,
2014-02-15 00:31:00,34.0,31.1,29.77,ENE,61,1.0,1.0,89,0.00,,,0.00,meteohub,2014-02-15 05:31:00,
2014-02-15 00:32:00,34.0,31.1,29.77,ENE,61,0.0,1.0,89,0.00,,,0.00,meteohub,2014-02-15 05:32:00,
2014-02-15 00:33:00,33.8,30.9,29.77,ENE,61,0.0,1.0,89,0.00,,,0.00,meteohub,2014-02-15 05:33:00,
2014-02-15 00:34:00,33.8,30.9,29.77,ENE,61,0.0,1.0,89,0.00,,,0.00,meteohub,2014-02-15 05:34:00,
2014-02-15 00:36:00,33.6,30.9,29.77,ENE,61,1.0,1.0,90,0.00,,,0.00,meteohub,2014-02-15 05:36:00,
2014-02-15 00:37:00,33.6,30.9,29.77,ENE,61,1.0,1.0,90,0.00,,,0.00,meteohub,2014-02-15 05:37:00,
2014-02-15 00:38:00,33.4,30.6,29.77,ENE,60,2.0,2.0,89,0.00,,,0.00,meteohub,2014-02-15 05:38:00,
2014-02-15 00:40:00,33.4,30.6,29.77,ENE,60,1.0,1.0,89,0.00,,,0.00,meteohub,2014-02-15 05:40:00,
2014-02-15 00:42:00,33.3,30.6,29.77,ENE,60,1.0,2.0,90,0.00,,,0.00,meteohub,2014-02-15 05:42:00,
2014-02-15 00:43:00,33.3,30.6,29.77,ENE,60,1.0,2.0,90,0.00,,,0.00,meteohub,2014-02-15 05:43:00,
2014-02-15 00:44:00,33.3,30.6,29.77,ENE,60,1.0,2.0,90,0.00,,,0.00,meteohub,2014-02-15 05:44:00,
2014-02-15 00:45:00,33.3,30.6,29.77,ENE,60,1.0,2.0,90,0.00,,,0.00,meteohub,2014-02-15 05:45:00,
2014-02-15 00:47:00,33.1,30.4,29.77,NE,44,2.0,2.0,90,0.00,,,0.00,meteohub,2014-02-15 05:47:00,
2014-02-15 00:48:00,33.1,30.4,29.77,NE,44,2.0,2.0,90,0.00,,,0.00,meteohub,2014-02-15 05:48:00,
2014-02-15 00:49:00,33.1,30.4,29.77,NE,44,3.0,3.0,90,0.00,,,0.00,meteohub,2014-02-15 05:49:00,
2014-02-15 00:50:00,33.1,30.4,29.77,NE,44,2.0,3.0,90,0.00,,,0.00,meteohub,2014-02-15 05:50:00,
2014-02-15 00:52:00,33.1,30.4,29.76,NE,44,2.0,3.0,90,0.00,,,0.00,meteohub,2014-02-15 05:52:00,
2014-02-15 00:53:00,33.1,30.4,29.76,NE,43,3.0,3.0,90,0.00,,,0.00,meteohub,2014-02-15 05:53:00,
2014-02-15 00:54:00,33.1,30.4,29.76,NNE,26,1.0,3.0,90,0.00,,,0.00,meteohub,2014-02-15 05:54:00,
2014-02-15 00:55:00,33.1,30.4,29.76,NNE,33,3.0,3.0,90,0.00,,,0.00,meteohub,2014-02-15 05:55:00,
2014-02-15 00:58:00,33.1,30.4,29.76,NNE,30,2.0,3.0,90,0.00,,,0.00,meteohub,2014-02-15 05:58:00,
2014-02-15 00:59:00,33.1,30.4,29.76,NNE,29,2.0,3.0,90,0.00,,,0.00,meteohub,2014-02-15 05:59:00,
2014-02-15 01:00:00,33.1,30.4,29.77,NNE,29,2.0,3.0,90,0.00,,,0.00,meteohub,2014-02-15 06:00:00,
2014-02-15 01:01:00,33.1,30.4,29.77,NNE,28,3.0,4.0,90,0.00,,,0.00,meteohub,2014-02-15 06:01:00,
2014-02-15 01:03:00,33.1,30.4,29.77,NNE,33,3.0,4.0,90,0.00,,,0.00,meteohub,2014-02-15 06:03:00,
2014-02-15 01:04:00,33.1,30.4,29.77,NNE,23,3.0,4.0,90,0.00,,,0.00,meteohub,2014-02-15 06:04:00,
2014-02-15 01:05:00,33.3,30.6,29.77,NE,37,1.0,4.0,90,0.00,,,0.00,meteohub,2014-02-15 06:05:00,
2014-02-15 01:06:00,33.3,30.6,29.77,NNE,31,2.0,4.0,90,0.00,,,0.00,meteohub,2014-02-15 06:06:00,
2014-02-15 01:09:00,33.3,30.6,29.77,NNE,28,3.0,4.0,90,0.00,,,0.00,meteohub,2014-02-15 06:09:00,
2014-02-15 01:10:00,33.3,30.6,29.77,NNE,28,0.0,5.0,90,0.00,,,0.00,meteohub,2014-02-15 06:10:00,
2014-02-15 01:11:00,33.4,30.7,29.77,NNE,28,1.0,5.0,90,0.00,,,0.00,meteohub,2014-02-15 06:11:00,
2014-02-15 01:15:00,33.4,30.6,29.77,NE,38,3.0,5.0,89,0.00,,,0.00,meteohub,2014-02-15 06:15:00,
2014-02-15 01:16:00,33.4,30.6,29.77,NE,38,2.0,5.0,89,0.00,,,0.00,meteohub,2014-02-15 06:16:00,
2014-02-15 01:17:00,33.4,30.6,29.77,NE,38,0.0,5.0,89,0.00,,,0.00,meteohub,2014-02-15 06:17:00,
2014-02-15 01:20:00,33.6,30.7,29.77,ENE,60,2.0,5.0,89,0.00,,,0.00,meteohub,2014-02-15 06:20:00,
2014-02-15 01:21:00,33.6,30.7,29.77,ENE,60,2.0,5.0,89,0.00,,,0.00,meteohub,2014-02-15 06:21:00,
2014-02-15 01:22:00,33.6,30.7,29.77,ENE,60,2.0,5.0,89,0.00,,,0.00,meteohub,2014-02-15 06:22:00,
2014-02-15 01:23:00,33.8,30.9,29.77,ENE,60,2.0,5.0,89,0.00,,,0.00,meteohub,2014-02-15 06:23:00,
2014-02-15 01:26:00,34.2,31.3,29.77,NE,46,3.0,4.0,89,0.00,,,0.00,meteohub,2014-02-15 06:26:00,
2014-02-15 01:27:00,34.2,31.3,29.77,NE,45,3.0,4.0,89,0.00,,,0.00,meteohub,2014-02-15 06:27:00,
2014-02-15 01:28:00,34.3,31.5,29.77,NE,44,0.0,4.0,89,0.00,,,0.00,meteohub,2014-02-15 06:28:00,
2014-02-15 01:31:00,34.7,31.8,29.77,NE,45,2.0,4.0,89,0.00,,,0.00,meteohub,2014-02-15 06:31:00,
2014-02-15 01:32:00,34.7,31.8,29.77,NE,45,2.0,4.0,89,0.00,,,0.00,meteohub,2014-02-15 06:32:00,
2014-02-15 01:33:00,34.9,32.0,29.77,NE,44,2.0,4.0,89,0.00,,,0.00,meteohub,2014-02-15 06:33:00,
2014-02-15 01:34:00,34.9,32.0,29.77,NE,44,2.0,4.0,89,0.00,,,0.00,meteohub,2014-02-15 06:34:00,
2014-02-15 01:37:00,35.1,32.2,29.77,NE,44,0.0,4.0,89,0.00,,,0.00,meteohub,2014-02-15 06:37:00,
2014-02-15 01:38:00,35.1,32.2,29.77,NE,44,1.0,4.0,89,0.00,,,0.00,meteohub,2014-02-15 06:38:00,
2014-02-15 01:39:00,35.1,32.2,29.77,NE,44,0.0,4.0,89,0.00,,,0.00,meteohub,2014-02-15 06:39:00,
2014-02-15 01:40:00,35.1,32.2,29.77,NE,44,0.0,4.0,89,0.00,,,0.00,meteohub,2014-02-15 06:40:00,
2014-02-15 01:42:00,35.1,32.2,29.77,NE,44,0.0,4.0,89,0.00,,,0.00,meteohub,2014-02-15 06:42:00,
2014-02-15 01:43:00,35.1,32.2,29.77,NE,35,3.0,4.0,89,0.00,,,0.00,meteohub,2014-02-15 06:43:00,
2014-02-15 01:44:00,35.2,32.4,29.77,NE,36,2.0,4.0,89,0.00,,,0.00,meteohub,2014-02-15 06:44:00,
2014-02-15 01:45:00,35.2,32.4,29.77,NE,36,3.0,4.0,89,0.00,,,0.00,meteohub,2014-02-15 06:45:00,
2014-02-15 01:47:00,35.2,32.4,29.77,NE,36,1.0,4.0,89,0.00,,,0.00,meteohub,2014-02-15 06:47:00,
2014-02-15 01:49:00,35.2,32.4,29.77,NE,35,0.0,4.0,89,0.00,,,0.00,meteohub,2014-02-15 06:49:00,
2014-02-15 01:51:00,35.2,32.4,29.77,NE,36,0.0,4.0,89,0.00,,,0.00,meteohub,2014-02-15 06:51:00,
2014-02-15 01:52:00,35.2,32.4,29.77,NE,36,0.0,4.0,89,0.00,,,0.00,meteohub,2014-02-15 06:52:00,
2014-02-15 01:54:00,35.2,32.4,29.77,NE,35,0.0,4.0,89,0.00,,,0.00,meteohub,2014-02-15 06:54:00,
2014-02-15 01:55:00,35.2,32.4,29.77,NE,36,1.0,4.0,89,0.00,,,0.00,meteohub,2014-02-15 06:55:00,
2014-02-15 01:56:00,35.2,32.0,29.77,NE,36,0.0,4.0,88,0.00,,,0.00,meteohub,2014-02-15 06:56:00,
2014-02-15 01:57:00,35.2,32.0,29.77,NE,38,2.0,4.0,88,0.00,,,0.00,meteohub,2014-02-15 06:57:00,
2014-02-15 01:59:00,35.2,32.4,29.77,NE,38,2.0,4.0,89,0.00,,,0.00,meteohub,2014-02-15 06:59:00,
2014-02-15 02:01:00,35.4,32.5,29.77,NE,54,2.0,3.0,89,0.00,,,0.00,meteohub,2014-02-15 07:01:00,
2014-02-15 02:02:00,35.4,32.5,29.77,ENE,58,3.0,3.0,89,0.00,,,0.00,meteohub,2014-02-15 07:02:00,
2014-02-15 02:03:00,35.4,32.5,29.77,ENE,57,1.0,3.0,89,0.00,,,0.00,meteohub,2014-02-15 07:03:00,
2014-02-15 02:04:00,35.4,32.2,29.76,NE,55,2.0,3.0,88,0.00,,,0.00,meteohub,2014-02-15 07:04:00,
2014-02-15 02:06:00,35.6,32.4,29.76,NE,56,2.0,3.0,88,0.00,,,0.00,meteohub,2014-02-15 07:06:00,
2014-02-15 02:07:00,35.6,32.4,29.76,ENE,59,1.0,3.0,88,0.00,,,0.00,meteohub,2014-02-15 07:07:00,
2014-02-15 02:08:00,35.6,32.4,29.77,East,84,2.0,3.0,88,0.00,,,0.00,meteohub,2014-02-15 07:08:00,
2014-02-15 02:10:00,35.8,32.5,29.76,ENE,65,2.0,3.0,88,0.00,,,0.00,meteohub,2014-02-15 07:10:00,
2014-02-15 02:12:00,35.8,32.5,29.76,ENE,66,4.0,5.0,88,0.00,,,0.00,meteohub,2014-02-15 07:12:00,
2014-02-15 02:13:00,36.0,32.5,29.76,ENE,65,3.0,5.0,87,0.00,,,0.00,meteohub,2014-02-15 07:13:00,
2014-02-15 02:14:00,36.0,32.5,29.76,NE,51,3.0,5.0,87,0.00,,,0.00,meteohub,2014-02-15 07:14:00,
2014-02-15 02:16:00,36.0,32.5,29.76,NE,55,4.0,5.0,87,0.00,,,0.00,meteohub,2014-02-15 07:16:00,
2014-02-15 02:17:00,36.0,32.5,29.76,ENE,62,5.0,5.0,87,0.00,,,0.00,meteohub,2014-02-15 07:17:00,
2014-02-15 02:19:00,36.1,32.4,29.76,ENE,59,4.0,5.0,86,0.00,,,0.00,meteohub,2014-02-15 07:19:00,
2014-02-15 02:20:00,36.3,32.2,29.76,ENE,63,1.0,5.0,85,0.00,,,0.00,meteohub,2014-02-15 07:20:00,
2014-02-15 02:21:00,36.3,32.2,29.76,NE,46,5.0,8.0,85,0.00,,,0.00,meteohub,2014-02-15 07:21:00,
2014-02-15 02:22:00,36.5,32.4,29.76,NE,53,6.0,8.0,85,0.00,,,0.00,meteohub,2014-02-15 07:22:00,
2014-02-15 02:24:00,36.7,32.4,29.76,NE,48,4.0,8.0,84,0.00,,,0.00,meteohub,2014-02-15 07:24:00,
2014-02-15 02:25:00,36.7,32.4,29.76,NE,53,2.0,8.0,84,0.00,,,0.00,meteohub,2014-02-15 07:25:00,
2014-02-15 02:27:00,36.7,32.4,29.76,NE,54,6.0,8.0,84,0.00,,,0.00,meteohub,2014-02-15 07:27:00,
2014-02-15 02:28:00,36.7,32.4,29.76,NE,42,3.0,8.0,84,0.00,,,0.00,meteohub,2014-02-15 07:28:00,
2014-02-15 02:29:00,36.7,32.0,29.75,NE,42,2.0,8.0,83,0.00,,,0.00,meteohub,2014-02-15 07:29:00,
2014-02-15 02:30:00,36.7,32.0,29.75,NE,38,5.0,8.0,83,0.00,,,0.00,meteohub,2014-02-15 07:30:00,
2014-02-15 02:32:00,36.7,32.0,29.75,NE,54,1.0,8.0,83,0.00,,,0.00,meteohub,2014-02-15 07:32:00,
2014-02-15 02:33:00,36.7,32.0,29.75,NE,55,2.0,8.0,83,0.00,,,0.00,meteohub,2014-02-15 07:33:00,
2014-02-15 02:34:00,36.7,32.0,29.75,NE,42,3.0,8.0,83,0.00,,,0.00,meteohub,2014-02-15 07:34:00,
2014-02-15 02:35:00,36.7,32.4,29.75,NNE,30,5.0,6.0,84,0.00,,,0.00,meteohub,2014-02-15 07:35:00,
2014-02-15 02:37:00,36.7,32.4,29.75,NNE,33,4.0,6.0,84,0.00,,,0.00,meteohub,2014-02-15 07:37:00,
2014-02-15 02:39:00,36.7,32.4,29.75,NE,53,4.0,6.0,84,0.00,,,0.00,meteohub,2014-02-15 07:39:00,
2014-02-15 02:40:00,36.7,32.4,29.75,NNE,28,3.0,6.0,84,0.00,,,0.00,meteohub,2014-02-15 07:40:00,
2014-02-15 02:41:00,36.7,32.4,29.75,ENE,74,5.0,6.0,84,0.00,,,0.00,meteohub,2014-02-15 07:41:00,
2014-02-15 02:42:00,36.7,32.4,29.75,ENE,63,3.0,6.0,84,0.00,,,0.00,meteohub,2014-02-15 07:42:00,
2014-02-15 02:44:00,36.7,32.4,29.75,ENE,60,3.0,6.0,84,0.00,,,0.00,meteohub,2014-02-15 07:44:00,
2014-02-15 02:45:00,36.7,32.4,29.75,NE,53,4.0,6.0,84,0.00,,,0.00,meteohub,2014-02-15 07:45:00,
2014-02-15 02:46:00,36.7,32.4,29.75,NE,36,2.0,8.0,84,0.00,,,0.00,meteohub,2014-02-15 07:46:00,
2014-02-15 02:47:00,36.7,32.4,29.75,NE,42,2.0,8.0,84,0.00,,,0.00,meteohub,2014-02-15 07:47:00,
2014-02-15 02:49:00,36.7,32.4,29.75,NE,51,2.0,8.0,84,0.00,,,0.00,meteohub,2014-02-15 07:49:00,
2014-02-15 02:50:00,36.7,32.4,29.75,ENE,62,3.0,8.0,84,0.00,,,0.00,meteohub,2014-02-15 07:50:00,
2014-02-15 02:51:00,36.7,32.4,29.75,ENE,58,1.0,8.0,84,0.00,,,0.00,meteohub,2014-02-15 07:51:00,
2014-02-15 02:53:00,36.7,32.4,29.75,NE,51,2.0,8.0,84,0.00,,,0.00,meteohub,2014-02-15 07:53:00,
2014-02-15 02:54:00,36.7,32.4,29.75,NE,40,3.0,8.0,84,0.00,,,0.00,meteohub,2014-02-15 07:54:00,
2014-02-15 02:55:00,36.7,32.4,29.75,NE,39,4.0,8.0,84,0.00,,,0.00,meteohub,2014-02-15 07:55:00,
2014-02-15 02:56:00,36.7,32.5,29.75,NE,42,4.0,8.0,85,0.00,,,0.00,meteohub,2014-02-15 07:56:00,
2014-02-15 02:57:00,36.7,32.5,29.75,NE,51,4.0,8.0,85,0.00,,,0.00,meteohub,2014-02-15 07:57:00,
2014-02-15 02:58:00,36.7,32.5,29.75,NE,53,5.0,8.0,85,0.00,,,0.00,meteohub,2014-02-15 07:58:00,
2014-02-15 03:00:00,36.7,32.5,29.74,NE,44,6.0,7.0,85,0.00,,,0.00,meteohub,2014-02-15 08:00:00,
2014-02-15 03:02:00,36.7,32.5,29.74,NE,54,3.0,7.0,85,0.00,,,0.00,meteohub,2014-02-15 08:02:00,
2014-02-15 03:03:00,36.7,32.5,29.74,NE,55,5.0,7.0,85,0.00,,,0.00,meteohub,2014-02-15 08:03:00,
2014-02-15 03:05:00,36.7,32.4,29.74,NE,52,3.0,8.0,84,0.00,,,0.00,meteohub,2014-02-15 08:05:00,
2014-02-15 03:07:00,36.7,32.4,29.74,NE,42,2.0,8.0,84,0.00,,,0.00,meteohub,2014-02-15 08:07:00,
2014-02-15 03:08:00,36.7,32.4,29.73,ENE,71,3.0,8.0,84,0.00,,,0.00,meteohub,2014-02-15 08:08:00,
2014-02-15 03:10:00,36.7,32.4,29.73,NE,56,3.0,8.0,84,0.00,,,0.00,meteohub,2014-02-15 08:10:00,
2014-02-15 03:11:00,36.7,32.4,29.73,NE,56,1.0,8.0,84,0.00,,,0.00,meteohub,2014-02-15 08:11:00,
2014-02-15 03:12:00,36.7,32.4,29.73,NE,52,3.0,8.0,84,0.00,,,0.00,meteohub,2014-02-15 08:12:00,
2014-02-15 03:13:00,36.7,32.4,29.73,ENE,62,3.0,8.0,84,0.00,,,0.00,meteohub,2014-02-15 08:13:00,
2014-02-15 03:16:00,36.7,32.4,29.73,NE,46,6.0,8.0,84,0.00,,,0.00,meteohub,2014-02-15 08:16:00,
2014-02-15 03:17:00,36.7,32.4,29.73,NE,35,3.0,8.0,84,0.00,,,0.00,meteohub,2014-02-15 08:17:00,
2014-02-15 03:19:00,36.7,32.4,29.73,ENE,62,3.0,8.0,84,0.00,,,0.00,meteohub,2014-02-15 08:19:00,
2014-02-15 03:21:00,36.7,32.0,29.73,NE,56,4.0,10.0,83,0.00,,,0.00,meteohub,2014-02-15 08:21:00,
2014-02-15 03:22:00,36.9,32.2,29.73,ENE,61,4.0,10.0,83,0.00,,,0.00,meteohub,2014-02-15 08:22:00,
2014-02-15 03:24:00,36.9,32.2,29.73,NE,43,6.0,10.0,83,0.00,,,0.00,meteohub,2014-02-15 08:24:00,
2014-02-15 03:25:00,36.9,32.2,29.73,NNE,33,3.0,10.0,83,0.00,,,0.00,meteohub,2014-02-15 08:25:00,
2014-02-15 03:26:00,36.9,32.2,29.73,NE,53,6.0,10.0,83,0.00,,,0.00,meteohub,2014-02-15 08:26:00,
2014-02-15 03:27:00,36.9,32.2,29.73,ENE,57,4.0,10.0,83,0.00,,,0.00,meteohub,2014-02-15 08:27:00,
2014-02-15 03:28:00,36.9,32.2,29.73,ENE,60,5.0,10.0,83,0.00,,,0.00,meteohub,2014-02-15 08:28:00,
2014-02-15 03:30:00,36.9,32.2,29.73,ENE,59,4.0,10.0,83,0.00,,,0.00,meteohub,2014-02-15 08:30:00,
2014-02-15 03:31:00,36.9,32.2,29.73,NE,40,4.0,10.0,83,0.00,,,0.00,meteohub,2014-02-15 08:31:00,
2014-02-15 03:32:00,36.9,32.2,29.73,NE,43,3.0,10.0,83,0.00,,,0.00,meteohub,2014-02-15 08:32:00,
2014-02-15 03:33:00,36.9,32.2,29.73,ENE,59,2.0,10.0,83,0.00,,,0.00,meteohub,2014-02-15 08:33:00,
2014-02-15 03:35:00,36.9,32.2,29.73,ENE,70,3.0,10.0,83,0.00,,,0.00,meteohub,2014-02-15 08:35:00,
2014-02-15 03:36:00,36.9,32.2,29.73,East,92,4.0,9.0,83,0.00,,,0.00,meteohub,2014-02-15 08:36:00,
2014-02-15 03:37:00,36.9,32.2,29.73,ENE,74,3.0,9.0,83,0.00,,,0.00,meteohub,2014-02-15 08:37:00,
2014-02-15 03:38:00,36.9,32.2,29.73,ENE,59,4.0,9.0,83,0.00,,,0.00,meteohub,2014-02-15 08:38:00,
2014-02-15 03:40:00,36.9,32.2,29.73,ENE,76,3.0,9.0,83,0.00,,,0.00,meteohub,2014-02-15 08:40:00,
2014-02-15 03:41:00,36.9,32.2,29.73,East,82,5.0,8.0,83,0.00,,,0.00,meteohub,2014-02-15 08:41:00,
2014-02-15 03:42:00,36.9,32.2,29.73,ENE,59,1.0,8.0,83,0.00,,,0.00,meteohub,2014-02-15 08:42:00,
2014-02-15 03:43:00,36.9,32.5,29.73,ENE,57,3.0,8.0,84,0.00,,,0.00,meteohub,2014-02-15 08:43:00,
2014-02-15 03:45:00,37.0,32.7,29.73,ENE,67,3.0,8.0,84,0.00,,,0.00,meteohub,2014-02-15 08:45:00,
2014-02-15 03:46:00,37.0,32.7,29.73,East,84,4.0,8.0,84,0.00,,,0.00,meteohub,2014-02-15 08:46:00,
2014-02-15 03:47:00,37.0,32.7,29.73,ENE,67,3.0,8.0,84,0.00,,,0.00,meteohub,2014-02-15 08:47:00,
2014-02-15 03:48:00,37.0,32.7,29.73,ENE,69,2.0,8.0,84,0.00,,,0.00,meteohub,2014-02-15 08:48:00,
2014-02-15 03:49:00,37.0,32.7,29.73,ENE,78,3.0,8.0,84,0.00,,,0.00,meteohub,2014-02-15 08:49:00,
2014-02-15 03:51:00,37.0,32.7,29.73,NE,52,2.0,8.0,84,0.00,,,0.00,meteohub,2014-02-15 08:51:00,
2014-02-15 03:52:00,37.0,32.7,29.73,ENE,64,3.0,8.0,84,0.00,,,0.00,meteohub,2014-02-15 08:52:00,
2014-02-15 03:53:00,37.0,32.7,29.73,East,80,1.0,8.0,84,0.00,,,0.00,meteohub,2014-02-15 08:53:00,
2014-02-15 03:54:00,37.0,32.7,29.73,ENE,66,1.0,8.0,84,0.00,,,0.00,meteohub,2014-02-15 08:54:00,
2014-02-15 03:55:00,37.0,32.7,29.73,NE,53,3.0,7.0,84,0.00,,,0.00,meteohub,2014-02-15 08:55:00,
2014-02-15 03:57:00,36.9,32.7,29.73,NE,53,3.0,7.0,85,0.00,,,0.00,meteohub,2014-02-15 08:57:00,
2014-02-15 03:59:00,36.9,32.7,29.73,ENE,61,4.0,7.0,85,0.00,,,0.00,meteohub,2014-02-15 08:59:00,
2014-02-15 04:00:00,36.9,32.7,29.74,NE,54,2.0,5.0,85,0.00,,,0.00,meteohub,2014-02-15 09:00:00,
2014-02-15 04:02:00,36.9,32.7,29.73,NE,51,3.0,5.0,85,0.00,,,0.00,meteohub,2014-02-15 09:02:00,
2014-02-15 04:03:00,36.9,32.7,29.73,ENE,61,3.0,5.0,85,0.00,,,0.00,meteohub,2014-02-15 09:03:00,
2014-02-15 04:04:00,37.0,32.9,29.73,NE,53,5.0,5.0,85,0.00,,,0.00,meteohub,2014-02-15 09:04:00,
2014-02-15 04:07:00,37.0,32.9,29.73,ENE,57,3.0,8.0,85,0.00,,,0.00,meteohub,2014-02-15 09:07:00,
2014-02-15 04:08:00,37.0,32.9,29.74,ENE,61,3.0,8.0,85,0.00,,,0.00,meteohub,2014-02-15 09:08:00,
2014-02-15 04:09:00,37.0,32.9,29.74,NE,52,4.0,8.0,85,0.00,,,0.00,meteohub,2014-02-15 09:09:00,
2014-02-15 04:10:00,37.0,32.9,29.74,NE,52,2.0,8.0,85,0.00,,,0.00,meteohub,2014-02-15 09:10:00,
2014-02-15 04:12:00,37.0,32.9,29.74,NE,55,4.0,8.0,85,0.00,,,0.00,meteohub,2014-02-15 09:12:00,
2014-02-15 04:13:00,37.0,32.9,29.73,ENE,59,2.0,8.0,85,0.00,,,0.00,meteohub,2014-02-15 09:13:00,
2014-02-15 04:14:00,37.0,32.9,29.73,ENE,57,5.0,8.0,85,0.00,,,0.00,meteohub,2014-02-15 09:14:00,
2014-02-15 04:15:00,37.0,32.9,29.73,NE,48,3.0,8.0,85,0.00,,,0.00,meteohub,2014-02-15 09:15:00,
2014-02-15 04:18:00,37.0,32.9,29.73,NE,56,4.0,9.0,85,0.00,,,0.00,meteohub,2014-02-15 09:18:00,
2014-02-15 04:19:00,37.0,32.9,29.73,ENE,58,5.0,9.0,85,0.00,,,0.00,meteohub,2014-02-15 09:19:00,
2014-02-15 04:20:00,37.0,32.9,29.73,ENE,59,4.0,9.0,85,0.00,,,0.00,meteohub,2014-02-15 09:20:00,
2014-02-15 04:21:00,37.0,32.9,29.73,NE,46,4.0,9.0,85,0.00,,,0.00,meteohub,2014-02-15 09:21:00,
2014-02-15 04:24:00,37.0,33.3,29.73,NE,41,4.0,9.0,86,0.00,,,0.00,meteohub,2014-02-15 09:24:00,
2014-02-15 04:25:00,37.0,33.3,29.73,ENE,68,5.0,8.0,86,0.00,,,0.00,meteohub,2014-02-15 09:25:00,
2014-02-15 04:26:00,37.2,33.4,29.73,ENE,63,3.0,8.0,86,0.00,,,0.00,meteohub,2014-02-15 09:26:00,
2014-02-15 04:29:00,37.2,33.4,29.73,NE,56,5.0,8.0,86,0.00,,,0.00,meteohub,2014-02-15 09:29:00,
2014-02-15 04:30:00,37.2,33.4,29.73,ENE,59,4.0,8.0,86,0.00,,,0.00,meteohub,2014-02-15 09:30:00,
2014-02-15 04:31:00,37.2,33.4,29.73,NE,48,3.0,8.0,86,0.00,,,0.00,meteohub,2014-02-15 09:31:00,
2014-02-15 04:34:00,37.0,33.3,29.73,NE,47,4.0,8.0,86,0.00,,,0.00,meteohub,2014-02-15 09:34:00,
2014-02-15 04:35:00,37.2,33.4,29.73,ENE,59,4.0,7.0,86,0.00,,,0.00,meteohub,2014-02-15 09:35:00,
2014-02-15 04:36:00,37.2,33.4,29.73,ENE,60,3.0,7.0,86,0.00,,,0.00,meteohub,2014-02-15 09:36:00,
2014-02-15 04:37:00,37.0,33.3,29.73,ENE,60,4.0,7.0,86,0.00,,,0.00,meteohub,2014-02-15 09:37:00,
2014-02-15 04:40:00,37.0,33.3,29.72,NE,38,4.0,7.0,86,0.00,,,0.00,meteohub,2014-02-15 09:40:00,
2014-02-15 04:41:00,37.2,33.4,29.72,ENE,71,4.0,8.0,86,0.00,,,0.00,meteohub,2014-02-15 09:41:00,
2014-02-15 04:42:00,37.2,33.4,29.72,NE,56,4.0,8.0,86,0.00,,,0.00,meteohub,2014-02-15 09:42:00,
2014-02-15 04:45:00,37.2,33.4,29.72,ENE,69,9.0,9.0,86,0.00,,,0.00,meteohub,2014-02-15 09:45:00,
2014-02-15 04:47:00,37.2,33.8,29.72,NE,49,10.0,10.0,87,0.00,,,0.00,meteohub,2014-02-15 09:47:00,
2014-02-15 04:50:00,37.2,33.4,29.72,NE,48,4.0,10.0,86,0.00,,,0.00,meteohub,2014-02-15 09:50:00,
2014-02-15 04:51:00,37.2,33.4,29.72,NE,34,5.0,10.0,86,0.00,,,0.00,meteohub,2014-02-15 09:51:00,
2014-02-15 04:52:00,37.2,33.4,29.72,ENE,57,6.0,10.0,86,0.00,,,0.00,meteohub,2014-02-15 09:52:00,
2014-02-15 04:53:00,37.2,33.4,29.72,ENE,65,6.0,10.0,86,0.00,,,0.00,meteohub,2014-02-15 09:53:00,
2014-02-15 04:56:00,37.2,33.4,29.72,ENE,65,6.0,12.0,86,0.00,,,0.00,meteohub,2014-02-15 09:56:00,
2014-02-15 04:58:00,37.2,33.4,29.72,NE,56,5.0,12.0,86,0.00,,,0.00,meteohub,2014-02-15 09:58:00,
2014-02-15 05:01:00,37.2,33.4,29.72,NE,55,4.0,12.0,86,0.00,,,0.00,meteohub,2014-02-15 10:01:00,
2014-02-15 05:03:00,37.4,33.6,29.72,NE,51,6.0,12.0,86,0.00,,,0.00,meteohub,2014-02-15 10:03:00,
2014-02-15 05:04:00,37.4,33.6,29.72,NE,44,3.0,12.0,86,0.00,,,0.00,meteohub,2014-02-15 10:04:00,
2014-02-15 05:06:00,37.4,33.6,29.72,ENE,65,4.0,12.0,86,0.00,,,0.00,meteohub,2014-02-15 10:06:00,
2014-02-15 05:07:00,37.4,33.6,29.72,ENE,63,5.0,12.0,86,0.00,,,0.00,meteohub,2014-02-15 10:07:00,
2014-02-15 05:08:00,37.6,33.8,29.72,ENE,73,9.0,12.0,86,0.00,,,0.00,meteohub,2014-02-15 10:08:00,
2014-02-15 05:09:00,37.6,33.8,29.72,East,84,10.0,12.0,86,0.00,,,0.00,meteohub,2014-02-15 10:09:00,
2014-02-15 05:11:00,37.6,33.8,29.71,NE,51,6.0,11.0,86,0.00,,,0.00,meteohub,2014-02-15 10:11:00,
2014-02-15 05:12:00,37.6,33.4,29.71,NNE,15,5.0,11.0,85,0.00,,,0.00,meteohub,2014-02-15 10:12:00,
2014-02-15 05:13:00,37.6,33.4,29.71,ENE,77,9.0,11.0,85,0.00,,,0.00,meteohub,2014-02-15 10:13:00,
2014-02-15 05:15:00,37.6,33.4,29.71,NNE,32,9.0,11.0,85,0.00,,,0.00,meteohub,2014-02-15 10:15:00,
2014-02-15 05:17:00,37.4,33.3,29.71,NNE,24,4.0,11.0,85,0.00,,,0.00,meteohub,2014-02-15 10:17:00,
2014-02-15 05:18:00,37.4,33.3,29.70,NE,40,9.0,11.0,85,0.00,,,0.00,meteohub,2014-02-15 10:18:00,
2014-02-15 05:20:00,37.4,33.3,29.70,East,80,8.0,11.0,85,0.00,,,0.00,meteohub,2014-02-15 10:20:00,
2014-02-15 05:22:00,37.4,33.3,29.70,ENE,64,9.0,11.0,85,0.00,,,0.00,meteohub,2014-02-15 10:22:00,
2014-02-15 05:23:00,37.4,33.3,29.70,NE,51,9.0,11.0,85,0.00,,,0.00,meteohub,2014-02-15 10:23:00,
2014-02-15 05:25:00,37.4,33.3,29.70,ENE,78,7.0,11.0,85,0.00,,,0.00,meteohub,2014-02-15 10:25:00,
2014-02-15 05:26:00,37.4,33.3,29.70,ENE,76,8.0,11.0,85,0.00,,,0.00,meteohub,2014-02-15 10:26:00,
2014-02-15 05:28:00,37.4,33.3,29.70,NE,43,7.0,11.0,85,0.00,,,0.00,meteohub,2014-02-15 10:28:00,
2014-02-15 05:29:00,37.4,33.3,29.70,NNE,29,5.0,11.0,85,0.00,,,0.00,meteohub,2014-02-15 10:29:00,
2014-02-15 05:30:00,37.4,33.3,29.70,NE,50,7.0,11.0,85,0.00,,,0.00,meteohub,2014-02-15 10:30:00,
2014-02-15 05:31:00,37.4,33.3,29.70,NE,37,5.0,12.0,85,0.00,,,0.00,meteohub,2014-02-15 10:31:00,
2014-02-15 05:32:00,37.4,33.3,29.70,NE,38,3.0,12.0,85,0.00,,,0.00,meteohub,2014-02-15 10:32:00,
2014-02-15 05:33:00,37.4,33.3,29.70,NE,56,6.0,12.0,85,0.00,,,0.00,meteohub,2014-02-15 10:33:00,
2014-02-15 05:34:00,37.4,33.3,29.70,NE,52,5.0,12.0,85,0.00,,,0.00,meteohub,2014-02-15 10:34:00,
2014-02-15 05:35:00,37.4,33.3,29.70,NE,53,4.0,12.0,85,0.00,,,0.00,meteohub,2014-02-15 10:35:00,
2014-02-15 05:36:00,37.4,33.3,29.69,NNE,17,5.0,12.0,85,0.00,,,0.00,meteohub,2014-02-15 10:36:00,
2014-02-15 05:37:00,37.4,33.3,29.69,NE,51,5.0,12.0,85,0.00,,,0.00,meteohub,2014-02-15 10:37:00,
2014-02-15 05:39:00,37.4,33.3,29.69,NE,35,5.0,12.0,85,0.00,,,0.00,meteohub,2014-02-15 10:39:00,
2014-02-15 05:40:00,37.4,33.3,29.69,NE,53,4.0,12.0,85,0.00,,,0.00,meteohub,2014-02-15 10:40:00,
2014-02-15 05:42:00,37.4,33.3,29.69,NE,55,7.0,12.0,85,0.00,,,0.00,meteohub,2014-02-15 10:42:00,
2014-02-15 05:43:00,37.4,33.3,29.69,ENE,58,5.0,12.0,85,0.00,,,0.00,meteohub,2014-02-15 10:43:00,
2014-02-15 05:45:00,37.4,33.3,29.69,NE,44,6.0,12.0,85,0.00,,,0.00,meteohub,2014-02-15 10:45:00,
2014-02-15 05:47:00,37.4,33.3,29.69,NE,54,6.0,11.0,85,0.00,,,0.00,meteohub,2014-02-15 10:47:00,
2014-02-15 05:48:00,37.4,33.3,29.69,NE,51,5.0,11.0,85,0.00,,,0.00,meteohub,2014-02-15 10:48:00,
2014-02-15 05:50:00,37.4,33.6,29.68,ENE,67,8.0,11.0,86,0.00,,,0.00,meteohub,2014-02-15 10:50:00,
2014-02-15 05:52:00,37.4,33.6,29.69,NE,56,7.0,11.0,86,0.00,,,0.00,meteohub,2014-02-15 10:52:00,
2014-02-15 05:53:00,37.4,33.6,29.68,NE,44,5.0,11.0,86,0.00,,,0.00,meteohub,2014-02-15 10:53:00,
2014-02-15 05:55:00,37.4,33.3,29.68,NE,40,7.0,11.0,85,0.00,,,0.00,meteohub,2014-02-15 10:55:00,
2014-02-15 05:56:00,37.4,33.6,29.69,NE,50,3.0,11.0,86,0.00,,,0.00,meteohub,2014-02-15 10:56:00,
2014-02-15 05:57:00,37.4,33.6,29.69,ENE,62,6.0,11.0,86,0.00,,,0.00,meteohub,2014-02-15 10:57:00,
2014-02-15 05:58:00,37.4,33.6,29.68,NNE,32,5.0,11.0,86,0.00,,,0.00,meteohub,2014-02-15 10:58:00,
2014-02-15 05:59:00,37.6,33.8,29.68,NNE,32,4.0,11.0,86,0.00,,,0.00,meteohub,2014-02-15 10:59:00,
2014-02-15 06:00:00,37.4,33.6,29.68,ENE,57,5.0,11.0,86,0.00,,,0.00,meteohub,2014-02-15 11:00:00,
2014-02-15 06:01:00,37.6,33.8,29.68,ENE,67,6.0,11.0,86,0.00,,,0.00,meteohub,2014-02-15 11:01:00,
2014-02-15 06:02:00,37.6,33.8,29.68,NNE,26,6.0,11.0,86,0.00,,,0.00,meteohub,2014-02-15 11:02:00,
2014-02-15 06:03:00,37.6,33.8,29.68,ENE,63,8.0,11.0,86,0.00,,,0.00,meteohub,2014-02-15 11:03:00,
2014-02-15 06:05:00,37.6,33.8,29.68,NNE,21,8.0,12.0,86,0.00,,,0.00,meteohub,2014-02-15 11:05:00,
2014-02-15 06:06:00,37.6,33.8,29.68,NE,34,6.0,12.0,86,0.00,,,0.00,meteohub,2014-02-15 11:06:00,
2014-02-15 06:07:00,37.6,33.8,29.68,ENE,59,9.0,12.0,86,0.00,,,0.00,meteohub,2014-02-15 11:07:00,
2014-02-15 06:08:00,37.6,33.8,29.68,East,81,3.0,12.0,86,0.00,,,0.00,meteohub,2014-02-15 11:08:00,
2014-02-15 06:09:00,37.6,33.8,29.68,NE,36,5.0,12.0,86,0.00,,,0.00,meteohub,2014-02-15 11:09:00,
2014-02-15 06:11:00,37.6,33.8,29.68,NE,45,7.0,14.0,86,0.00,,,0.00,meteohub,2014-02-15 11:11:00,
2014-02-15 06:12:00,37.6,33.8,29.68,NE,36,5.0,14.0,86,0.00,,,0.00,meteohub,2014-02-15 11:12:00,
2014-02-15 06:13:00,37.6,33.8,29.68,ENE,58,5.0,14.0,86,0.00,,,0.00,meteohub,2014-02-15 11:13:00,
2014-02-15 06:14:00,37.6,33.8,29.68,NNE,31,5.0,14.0,86,0.00,,,0.00,meteohub,2014-02-15 11:14:00,
2014-02-15 06:15:00,37.6,33.8,29.68,NE,42,4.0,14.0,86,0.00,,,0.00,meteohub,2014-02-15 11:15:00,
2014-02-15 06:17:00,37.6,33.8,29.68,ENE,67,8.0,14.0,86,0.00,,,0.00,meteohub,2014-02-15 11:17:00,
2014-02-15 06:18:00,37.6,33.8,29.68,ENE,65,8.0,14.0,86,0.00,,,0.00,meteohub,2014-02-15 11:18:00,
2014-02-15 06:19:00,37.6,33.8,29.68,NNE,22,8.0,14.0,86,0.00,,,0.00,meteohub,2014-02-15 11:19:00,
2014-02-15 06:20:00,37.6,33.8,29.68,NE,46,7.0,14.0,86,0.00,,,0.00,meteohub,2014-02-15 11:20:00,
2014-02-15 06:21:00,37.6,33.8,29.68,ENE,57,6.0,14.0,86,0.00,,,0.00,meteohub,2014-02-15 11:21:00,
2014-02-15 06:23:00,37.6,33.8,29.68,NE,48,10.0,14.0,86,0.00,,,0.00,meteohub,2014-02-15 11:23:00,
2014-02-15 06:24:00,37.6,33.8,29.68,NE,51,4.0,14.0,86,0.00,,,0.00,meteohub,2014-02-15 11:24:00,
2014-02-15 06:25:00,37.6,33.8,29.68,NNE,32,4.0,14.0,86,0.00,,,0.00,meteohub,2014-02-15 11:25:00,
2014-02-15 06:26:00,37.6,33.8,29.68,ENE,78,8.0,12.0,86,0.00,,,0.00,meteohub,2014-02-15 11:26:00,
2014-02-15 06:28:00,37.6,33.8,29.68,NNE,28,8.0,12.0,86,0.00,,,0.00,meteohub,2014-02-15 11:28:00,
2014-02-15 06:29:00,37.6,33.8,29.68,NNE,33,6.0,12.0,86,0.00,,,0.00,meteohub,2014-02-15 11:29:00,
2014-02-15 06:30:00,37.6,33.8,29.68,ENE,75,5.0,12.0,86,0.00,,,0.00,meteohub,2014-02-15 11:30:00,
2014-02-15 06:31:00,37.6,33.8,29.68,ENE,77,4.0,12.0,86,0.00,,,0.00,meteohub,2014-02-15 11:31:00,
2014-02-15 06:32:00,37.6,33.8,29.68,NNE,30,8.0,12.0,86,0.00,,,0.00,meteohub,2014-02-15 11:32:00,
2014-02-15 06:33:00,37.8,34.0,29.68,NNE,28,5.0,12.0,86,0.00,,,0.00,meteohub,2014-02-15 11:33:00,
2014-02-15 06:36:00,37.8,34.0,29.67,ENE,61,4.0,12.0,86,0.00,,,0.00,meteohub,2014-02-15 11:36:00,
2014-02-15 06:37:00,37.8,34.0,29.67,NNE,14,7.0,12.0,86,0.00,,,0.00,meteohub,2014-02-15 11:37:00,
2014-02-15 06:38:00,37.8,33.6,29.67,ENE,65,5.0,12.0,85,0.00,,,0.00,meteohub,2014-02-15 11:38:00,
2014-02-15 06:42:00,37.8,33.6,29.68,NE,47,10.0,12.0,85,0.00,,,0.00,meteohub,2014-02-15 11:42:00,
2014-02-15 06:43:00,37.8,33.6,29.67,NNE,24,8.0,12.0,85,0.00,,,0.00,meteohub,2014-02-15 11:43:00,
2014-02-15 06:45:00,37.8,33.6,29.68,ENE,57,5.0,12.0,85,0.00,,,0.00,meteohub,2014-02-15 11:45:00,
2014-02-15 06:46:00,37.8,33.6,29.68,NE,40,4.0,12.0,85,0.00,,,0.00,meteohub,2014-02-15 11:46:00,
2014-02-15 06:47:00,37.8,33.6,29.67,ENE,57,6.0,12.0,85,0.00,,,0.00,meteohub,2014-02-15 11:47:00,
2014-02-15 06:48:00,37.8,33.6,29.67,ENE,60,7.0,12.0,85,0.00,,,0.00,meteohub,2014-02-15 11:48:00,
2014-02-15 06:49:00,37.8,33.6,29.67,ENE,64,4.0,12.0,85,0.00,,,0.00,meteohub,2014-02-15 11:49:00,
2014-02-15 06:51:00,37.8,33.6,29.67,ENE,70,5.0,12.0,85,0.00,,,0.00,meteohub,2014-02-15 11:51:00,
2014-02-15 06:52:00,37.9,33.8,29.67,ENE,69,8.0,12.0,85,0.00,,,0.00,meteohub,2014-02-15 11:52:00,
2014-02-15 06:53:00,37.9,33.8,29.67,NE,39,5.0,12.0,85,0.00,,,0.00,meteohub,2014-02-15 11:53:00,
2014-02-15 06:54:00,37.8,33.6,29.67,NE,47,9.0,12.0,85,0.00,,,0.00,meteohub,2014-02-15 11:54:00,
2014-02-15 06:56:00,37.9,33.8,29.67,NNE,19,11.0,12.0,85,0.00,,,0.00,meteohub,2014-02-15 11:56:00,
2014-02-15 06:58:00,37.9,33.8,29.67,NE,42,6.0,12.0,85,0.00,,,0.00,meteohub,2014-02-15 11:58:00,
2014-02-15 06:59:00,37.9,33.8,29.67,NNE,22,4.0,12.0,85,0.00,,,0.00,meteohub,2014-02-15 11:59:00,
2014-02-15 07:00:00,37.9,33.8,29.67,NE,41,5.0,12.0,85,0.00,,,0.00,meteohub,2014-02-15 12:00:00,
2014-02-15 07:03:00,37.9,33.8,29.67,NNE,33,6.0,12.0,85,0.00,,,0.00,meteohub,2014-02-15 12:03:00,
2014-02-15 07:04:00,37.9,33.8,29.68,NE,46,10.0,12.0,85,0.00,,,0.00,meteohub,2014-02-15 12:04:00,
2014-02-15 07:05:00,37.9,33.8,29.68,NE,46,10.0,12.0,85,0.00,,,0.00,meteohub,2014-02-15 12:05:00,
2014-02-15 07:06:00,37.9,33.8,29.68,NNE,32,6.0,12.0,85,0.00,,,0.00,meteohub,2014-02-15 12:06:00,
2014-02-15 07:08:00,37.9,33.8,29.68,NE,36,3.0,12.0,85,0.00,,,0.00,meteohub,2014-02-15 12:08:00,
2014-02-15 07:09:00,37.9,33.8,29.68,North,11,7.0,12.0,85,0.00,,,0.00,meteohub,2014-02-15 12:09:00,
2014-02-15 07:10:00,37.9,33.8,29.68,NE,42,5.0,12.0,85,0.00,,,0.00,meteohub,2014-02-15 12:10:00,
2014-02-15 07:11:00,37.9,33.8,29.68,NE,36,4.0,12.0,85,0.00,,,0.00,meteohub,2014-02-15 12:11:00,
2014-02-15 07:12:00,37.9,33.8,29.68,NE,49,6.0,12.0,85,0.00,,,0.00,meteohub,2014-02-15 12:12:00,
2014-02-15 07:13:00,37.9,34.2,29.68,East,83,5.0,12.0,86,0.00,,,0.00,meteohub,2014-02-15 12:13:00,
2014-02-15 07:14:00,38.1,34.3,29.68,NE,46,5.0,12.0,86,0.00,,,0.00,meteohub,2014-02-15 12:14:00,
2014-02-15 07:15:00,38.1,34.3,29.68,NE,40,7.0,12.0,86,0.00,,,0.00,meteohub,2014-02-15 12:15:00,
2014-02-15 07:16:00,38.1,34.3,29.68,NE,53,7.0,11.0,86,0.00,,,0.00,meteohub,2014-02-15 12:16:00,
2014-02-15 07:17:00,38.1,34.3,29.68,ENE,63,9.0,11.0,86,0.00,,,0.00,meteohub,2014-02-15 12:17:00,
2014-02-15 07:18:00,38.1,34.3,29.68,NE,44,5.0,11.0,86,0.00,,,0.00,meteohub,2014-02-15 12:18:00,
2014-02-15 07:19:00,38.1,34.3,29.68,ENE,70,6.0,11.0,86,0.00,,,0.00,meteohub,2014-02-15 12:19:00,
2014-02-15 07:20:00,38.1,34.3,29.68,NNE,15,8.0,11.0,86,0.00,,,0.00,meteohub,2014-02-15 12:20:00,
2014-02-15 07:21:00,38.3,34.5,29.68,NNE,28,6.0,11.0,86,0.00,,,0.00,meteohub,2014-02-15 12:21:00,
2014-02-15 07:23:00,38.3,34.5,29.68,NNE,32,5.0,11.0,86,0.00,,,0.00,meteohub,2014-02-15 12:23:00,
2014-02-15 07:25:00,38.5,34.7,29.68,ENE,67,8.0,11.0,86,0.00,,,0.00,meteohub,2014-02-15 12:25:00,
2014-02-15 07:26:00,38.5,34.7,29.68,ENE,73,8.0,10.0,86,0.00,,,0.00,meteohub,2014-02-15 12:26:00,
2014-02-15 07:28:00,38.5,34.7,29.69,NE,51,5.0,10.0,86,0.00,,,0.00,meteohub,2014-02-15 12:28:00,
2014-02-15 07:30:00,38.5,34.7,29.69,NNE,24,4.0,11.0,86,0.00,,,0.00,meteohub,2014-02-15 12:30:00,
2014-02-15 07:31:00,38.5,34.7,29.69,NE,43,5.0,11.0,86,0.00,,,0.00,meteohub,2014-02-15 12:31:00,
2014-02-15 07:33:00,38.5,34.7,29.69,NE,35,5.0,11.0,86,0.00,,,0.00,meteohub,2014-02-15 12:33:00,
2014-02-15 07:36:00,38.5,34.7,29.69,NE,42,4.0,11.0,86,0.00,,,0.00,meteohub,2014-02-15 12:36:00,
2014-02-15 07:37:00,38.5,34.7,29.69,NE,35,3.0,11.0,86,0.00,,,0.00,meteohub,2014-02-15 12:37:00,
2014-02-15 07:38:00,38.5,34.7,29.69,ENE,66,5.0,11.0,86,0.00,,,0.00,meteohub,2014-02-15 12:38:00,
2014-02-15 07:39:00,38.5,34.7,29.69,NNE,32,5.0,11.0,86,0.00,,,0.00,meteohub,2014-02-15 12:39:00,
2014-02-15 07:40:00,38.5,34.7,29.69,ENE,73,5.0,11.0,86,0.00,,,0.00,meteohub,2014-02-15 12:40:00,
2014-02-15 07:41:00,38.5,34.7,29.69,ENE,74,3.0,11.0,86,0.00,,,0.00,meteohub,2014-02-15 12:41:00,
2014-02-15 07:42:00,38.5,34.9,29.69,NE,52,5.0,11.0,87,0.00,,,0.00,meteohub,2014-02-15 12:42:00,
2014-02-15 07:44:00,38.7,35.1,29.69,NNE,27,4.0,11.0,87,0.00,,,0.00,meteohub,2014-02-15 12:44:00,
2014-02-15 07:45:00,38.7,35.1,29.69,East,84,5.0,11.0,87,0.00,,,0.00,meteohub,2014-02-15 12:45:00,
2014-02-15 07:46:00,38.7,35.1,29.69,NNE,21,5.0,11.0,87,0.00,,,0.00,meteohub,2014-02-15 12:46:00,
2014-02-15 07:47:00,38.7,35.1,29.69,NE,38,7.0,11.0,87,0.00,,,0.00,meteohub,2014-02-15 12:47:00,
2014-02-15 07:48:00,38.8,35.2,29.69,NE,34,4.0,11.0,87,0.00,,,0.00,meteohub,2014-02-15 12:48:00,
2014-02-15 07:49:00,38.8,35.2,29.69,NNE,29,6.0,11.0,87,0.00,,,0.00,meteohub,2014-02-15 12:49:00,
2014-02-15 07:51:00,38.8,35.2,29.69,NNE,28,5.0,11.0,87,0.00,,,0.00,meteohub,2014-02-15 12:51:00,
2014-02-15 07:52:00,38.8,35.2,29.69,NE,42,6.0,11.0,87,0.00,,,0.00,meteohub,2014-02-15 12:52:00,
2014-02-15 07:53:00,38.8,35.2,29.69,NNE,28,2.0,11.0,87,0.00,,,0.00,meteohub,2014-02-15 12:53:00,
2014-02-15 07:54:00,39.0,35.4,29.69,NNE,29,3.0,11.0,87,0.00,,,0.00,meteohub,2014-02-15 12:54:00,
2014-02-15 07:55:00,39.0,35.4,29.69,NNE,12,9.0,11.0,87,0.00,,,0.00,meteohub,2014-02-15 12:55:00,
2014-02-15 07:57:00,39.0,35.4,29.68,NNE,31,5.0,12.0,87,0.00,,,0.00,meteohub,2014-02-15 12:57:00,
2014-02-15 07:58:00,39.0,35.2,29.68,NNE,26,10.0,12.0,86,0.00,,,0.00,meteohub,2014-02-15 12:58:00,
2014-02-15 07:59:00,39.0,35.2,29.68,NNE,23,6.0,12.0,86,0.00,,,0.00,meteohub,2014-02-15 12:59:00,
2014-02-15 08:00:00,39.0,35.2,29.68,NE,35,11.0,12.0,86,0.00,,,0.00,meteohub,2014-02-15 13:00:00,
2014-02-15 08:02:00,39.0,35.2,29.68,NNE,17,8.0,12.0,86,0.00,,,0.00,meteohub,2014-02-15 13:02:00,
2014-02-15 08:03:00,39.2,35.4,29.68,NNW,347,4.0,12.0,86,0.00,,,0.00,meteohub,2014-02-15 13:03:00,
2014-02-15 08:05:00,39.2,35.4,29.68,North,11,8.0,12.0,86,0.00,,,0.00,meteohub,2014-02-15 13:05:00,
2014-02-15 08:06:00,39.2,35.6,29.68,NNE,23,8.0,12.0,87,0.00,,,0.00,meteohub,2014-02-15 13:06:00,
2014-02-15 08:07:00,39.2,35.6,29.68,North,11,4.0,12.0,87,0.00,,,0.00,meteohub,2014-02-15 13:07:00,
2014-02-15 08:08:00,39.2,35.6,29.68,North,5,6.0,12.0,87,0.00,,,0.00,meteohub,2014-02-15 13:08:00,
2014-02-15 08:09:00,39.2,35.4,29.68,NE,55,5.0,12.0,86,0.00,,,0.00,meteohub,2014-02-15 13:09:00,
2014-02-15 08:10:00,39.2,35.4,29.68,NNE,31,6.0,12.0,86,0.00,,,0.00,meteohub,2014-02-15 13:10:00,
2014-02-15 08:11:00,39.2,35.4,29.68,NNE,17,4.0,12.0,86,0.00,,,0.00,meteohub,2014-02-15 13:11:00,
2014-02-15 08:14:00,39.2,35.6,29.68,NE,44,5.0,12.0,87,0.00,,,0.00,meteohub,2014-02-15 13:14:00,
2014-02-15 08:15:00,39.4,35.6,29.68,North,5,3.0,12.0,86,0.00,,,0.00,meteohub,2014-02-15 13:15:00,
2014-02-15 08:16:00,39.4,35.8,29.68,NNE,15,9.0,12.0,87,0.00,,,0.00,meteohub,2014-02-15 13:16:00,
2014-02-15 08:17:00,39.4,35.8,29.67,NNE,27,9.0,12.0,87,0.00,,,0.00,meteohub,2014-02-15 13:17:00,
2014-02-15 08:19:00,39.4,35.8,29.67,NE,46,7.0,12.0,87,0.00,,,0.00,meteohub,2014-02-15 13:19:00,
2014-02-15 08:20:00,39.4,35.8,29.68,NNE,30,5.0,13.0,87,0.00,,,0.00,meteohub,2014-02-15 13:20:00,
2014-02-15 08:21:00,39.4,35.8,29.68,NNE,32,3.0,13.0,87,0.00,,,0.00,meteohub,2014-02-15 13:21:00,
2014-02-15 08:22:00,39.4,35.8,29.68,NNE,32,5.0,13.0,87,0.00,,,0.00,meteohub,2014-02-15 13:22:00,
2014-02-15 08:24:00,39.6,36.0,29.68,NNE,29,4.0,13.0,87,0.00,,,0.00,meteohub,2014-02-15 13:24:00,
2014-02-15 08:25:00,39.6,36.0,29.68,NE,44,5.0,13.0,87,0.00,,,0.00,meteohub,2014-02-15 13:25:00,
2014-02-15 08:26:00,39.6,36.0,29.67,North,0,4.0,13.0,87,0.00,,,0.00,meteohub,2014-02-15 13:26:00,
2014-02-15 08:29:00,39.6,36.0,29.67,NNE,30,4.0,13.0,87,0.00,,,0.00,meteohub,2014-02-15 13:29:00,
2014-02-15 08:30:00,39.6,36.0,29.67,ENE,61,9.0,13.0,87,0.00,,,0.00,meteohub,2014-02-15 13:30:00,
2014-02-15 08:32:00,39.6,36.0,29.67,NE,36,5.0,13.0,87,0.00,,,0.00,meteohub,2014-02-15 13:32:00,
2014-02-15 08:34:00,39.6,35.8,29.66,North,0,4.0,13.0,86,0.00,,,0.00,meteohub,2014-02-15 13:34:00,
2014-02-15 08:36:00,39.4,35.8,29.66,East,80,4.0,12.0,87,0.00,,,0.00,meteohub,2014-02-15 13:36:00,
2014-02-15 08:37:00,39.4,35.6,29.66,NE,54,4.0,12.0,86,0.00,,,0.00,meteohub,2014-02-15 13:37:00,
2014-02-15 08:38:00,39.4,35.8,29.66,NE,42,10.0,12.0,87,0.00,,,0.00,meteohub,2014-02-15 13:38:00,
2014-02-15 08:39:00,39.4,35.8,29.66,ENE,70,4.0,12.0,87,0.00,,,0.00,meteohub,2014-02-15 13:39:00,
2014-02-15 08:41:00,39.6,36.3,29.66,NE,55,7.0,12.0,88,0.00,,,0.00,meteohub,2014-02-15 13:41:00,
2014-02-15 08:42:00,39.6,36.3,29.66,ENE,63,6.0,12.0,88,0.00,,,0.00,meteohub,2014-02-15 13:42:00,
2014-02-15 08:43:00,39.6,36.3,29.66,NE,55,5.0,12.0,88,0.00,,,0.00,meteohub,2014-02-15 13:43:00,
2014-02-15 08:44:00,39.6,36.3,29.66,NNE,32,6.0,12.0,88,0.00,,,0.00,meteohub,2014-02-15 13:44:00,
2014-02-15 08:46:00,39.7,36.5,29.66,ENE,68,9.0,15.0,88,0.00,,,0.00,meteohub,2014-02-15 13:46:00,
2014-02-15 08:47:00,39.7,36.5,29.65,ENE,71,8.0,15.0,88,0.00,,,0.00,meteohub,2014-02-15 13:47:00,
2014-02-15 08:48:00,39.7,36.5,29.65,ENE,66,6.0,15.0,88,0.00,,,0.00,meteohub,2014-02-15 13:48:00,
2014-02-15 08:50:00,39.9,36.7,29.65,East,84,8.0,15.0,88,0.00,,,0.00,meteohub,2014-02-15 13:50:00,
2014-02-15 08:51:00,39.9,36.7,29.65,NE,37,9.0,15.0,88,0.00,,,0.00,meteohub,2014-02-15 13:51:00,
2014-02-15 08:52:00,39.9,36.7,29.65,East,95,11.0,15.0,88,0.00,,,0.00,meteohub,2014-02-15 13:52:00,
2014-02-15 08:53:00,39.9,36.9,29.65,ENE,77,9.0,15.0,89,0.00,,,0.00,meteohub,2014-02-15 13:53:00,
2014-02-15 08:55:00,39.9,36.9,29.65,ENE,64,3.0,15.0,89,0.00,,,0.00,meteohub,2014-02-15 13:55:00,
2014-02-15 08:57:00,39.9,36.9,29.65,ENE,71,3.0,15.0,89,0.00,,,0.00,meteohub,2014-02-15 13:57:00,
2014-02-15 08:58:00,39.9,36.9,29.65,ENE,76,10.0,15.0,89,0.00,,,0.00,meteohub,2014-02-15 13:58:00,
2014-02-15 09:01:00,39.9,36.9,29.65,East,82,15.0,16.0,89,0.00,,,0.00,meteohub,2014-02-15 14:01:00,
2014-02-15 09:02:00,39.9,36.9,29.65,ENE,59,12.0,16.0,89,0.00,,,0.00,meteohub,2014-02-15 14:02:00,
2014-02-15 09:03:00,40.1,37.0,29.65,ENE,75,12.0,16.0,89,0.00,,,0.00,meteohub,2014-02-15 14:03:00,
2014-02-15 09:05:00,40.3,37.6,29.64,ENE,62,6.0,18.0,90,0.01,,,0.01,meteohub,2014-02-15 14:05:00,
2014-02-15 09:06:00,40.3,37.2,29.64,ENE,74,8.0,18.0,89,0.01,,,0.01,meteohub,2014-02-15 14:06:00,
2014-02-15 09:07:00,40.3,37.2,29.64,ENE,74,12.0,18.0,89,0.01,,,0.01,meteohub,2014-02-15 14:07:00,
2014-02-15 09:08:00,40.5,37.4,29.64,ENE,57,9.0,18.0,89,0.01,,,0.01,meteohub,2014-02-15 14:08:00,
2014-02-15 09:10:00,40.3,37.2,29.64,ENE,61,14.0,18.0,89,0.01,,,0.01,meteohub,2014-02-15 14:10:00,
2014-02-15 09:11:00,40.3,37.2,29.64,NE,53,10.0,18.0,89,0.01,,,0.01,meteohub,2014-02-15 14:11:00,
2014-02-15 09:12:00,40.3,37.2,29.64,East,81,10.0,18.0,89,0.01,,,0.01,meteohub,2014-02-15 14:12:00,
2014-02-15 09:13:00,40.3,37.6,29.64,NNE,14,9.0,18.0,90,0.01,,,0.01,meteohub,2014-02-15 14:13:00,
2014-02-15 09:15:00,40.3,37.6,29.64,ENE,65,6.0,18.0,90,0.02,,,0.02,meteohub,2014-02-15 14:15:00,
2014-02-15 09:16:00,40.3,37.6,29.64,East,90,8.0,18.0,90,0.02,,,0.02,meteohub,2014-02-15 14:16:00,
2014-02-15 09:18:00,40.3,37.6,29.63,ESE,110,11.0,18.0,90,0.02,,,0.02,meteohub,2014-02-15 14:18:00,
2014-02-15 09:19:00,40.3,37.6,29.63,NE,55,12.0,18.0,90,0.02,,,0.02,meteohub,2014-02-15 14:19:00,
2014-02-15 09:21:00,40.3,37.6,29.64,ENE,57,11.0,16.0,90,0.02,,,0.02,meteohub,2014-02-15 14:21:00,
2014-02-15 09:22:00,40.3,37.6,29.64,NNE,31,11.0,16.0,90,0.02,,,0.02,meteohub,2014-02-15 14:22:00,
2014-02-15 09:24:00,40.1,37.4,29.64,ENE,66,9.0,16.0,90,0.02,,,0.02,meteohub,2014-02-15 14:24:00,
2014-02-15 09:25:00,40.1,37.4,29.64,ENE,61,10.0,16.0,90,0.02,,,0.02,meteohub,2014-02-15 14:25:00,
2014-02-15 09:26:00,40.1,37.4,29.63,ENE,73,12.0,16.0,90,0.02,,,0.02,meteohub,2014-02-15 14:26:00,
2014-02-15 09:27:00,40.1,37.4,29.63,ENE,72,13.0,16.0,90,0.02,,,0.02,meteohub,2014-02-15 14:27:00,
2014-02-15 09:28:00,40.1,37.4,29.63,East,88,10.0,16.0,90,0.02,,,0.02,meteohub,2014-02-15 14:28:00,
2014-02-15 09:29:00,40.1,37.4,29.63,East,95,11.0,16.0,90,0.02,,,0.02,meteohub,2014-02-15 14:29:00,
2014-02-15 09:30:00,40.1,37.4,29.63,East,94,13.0,16.0,90,0.02,,,0.02,meteohub,2014-02-15 14:30:00,
2014-02-15 09:32:00,40.1,37.4,29.63,East,98,11.0,16.0,90,0.02,,,0.02,meteohub,2014-02-15 14:32:00,
2014-02-15 09:35:00,40.1,37.4,29.63,ENE,72,11.0,16.0,90,0.03,,,0.03,meteohub,2014-02-15 14:35:00,
2014-02-15 09:36:00,40.1,37.4,29.63,ENE,64,6.0,16.0,90,0.03,,,0.03,meteohub,2014-02-15 14:36:00,
2014-02-15 09:37:00,39.9,37.2,29.63,NE,51,11.0,16.0,90,0.03,,,0.03,meteohub,2014-02-15 14:37:00,
2014-02-15 09:38:00,39.9,37.2,29.63,East,82,11.0,16.0,90,0.03,,,0.03,meteohub,2014-02-15 14:38:00,
2014-02-15 09:41:00,39.9,37.2,29.62,NE,51,10.0,16.0,90,0.03,,,0.03,meteohub,2014-02-15 14:41:00,
2014-02-15 09:42:00,39.9,37.2,29.61,ENE,74,9.0,16.0,90,0.03,,,0.03,meteohub,2014-02-15 14:42:00,
2014-02-15 09:43:00,39.9,37.2,29.61,ENE,78,5.0,16.0,90,0.03,,,0.03,meteohub,2014-02-15 14:43:00,
2014-02-15 09:46:00,39.7,37.4,29.60,NE,50,9.0,16.0,91,0.04,,,0.04,meteohub,2014-02-15 14:46:00,
2014-02-15 09:47:00,39.7,37.4,29.60,ENE,70,8.0,16.0,91,0.04,,,0.04,meteohub,2014-02-15 14:47:00,
2014-02-15 09:48:00,39.7,37.4,29.60,ENE,60,5.0,16.0,91,0.04,,,0.04,meteohub,2014-02-15 14:48:00,
2014-02-15 09:49:00,39.7,37.4,29.60,ENE,67,5.0,16.0,91,0.04,,,0.04,meteohub,2014-02-15 14:49:00,
2014-02-15 09:50:00,39.7,37.4,29.60,ENE,71,6.0,14.0,91,0.04,,,0.04,meteohub,2014-02-15 14:50:00,
2014-02-15 09:51:00,39.7,37.4,29.60,NE,49,10.0,14.0,91,0.04,,,0.04,meteohub,2014-02-15 14:51:00,
2014-02-15 09:52:00,39.7,37.4,29.60,NE,49,6.0,14.0,91,0.04,,,0.04,meteohub,2014-02-15 14:52:00,
2014-02-15 09:53:00,39.7,37.4,29.60,ENE,76,5.0,14.0,91,0.04,,,0.04,meteohub,2014-02-15 14:53:00,
2014-02-15 09:54:00,39.7,37.4,29.60,NE,45,5.0,14.0,91,0.04,,,0.04,meteohub,2014-02-15 14:54:00,
2014-02-15 09:56:00,39.7,37.4,29.60,ENE,58,15.0,15.0,91,0.04,,,0.04,meteohub,2014-02-15 14:56:00,
2014-02-15 09:58:00,39.7,37.4,29.60,NE,43,6.0,13.0,91,0.04,,,0.04,meteohub,2014-02-15 14:58:00,
2014-02-15 09:59:00,39.7,37.4,29.60,NE,53,6.0,13.0,91,0.04,,,0.04,meteohub,2014-02-15 14:59:00,
2014-02-15 10:01:00,39.7,37.4,29.60,NE,48,7.0,15.0,91,0.03,,,0.04,meteohub,2014-02-15 15:01:00,
2014-02-15 10:02:00,39.7,37.6,29.60,NE,46,6.0,15.0,92,0.03,,,0.04,meteohub,2014-02-15 15:02:00,
2014-02-15 10:03:00,39.7,37.6,29.60,NE,51,7.0,15.0,92,0.03,,,0.04,meteohub,2014-02-15 15:03:00,
2014-02-15 10:04:00,39.7,37.6,29.60,East,90,9.0,15.0,92,0.03,,,0.04,meteohub,2014-02-15 15:04:00,
2014-02-15 10:05:00,39.7,37.6,29.60,ENE,64,10.0,15.0,92,0.03,,,0.04,meteohub,2014-02-15 15:05:00,
2014-02-15 10:06:00,39.6,37.4,29.60,NE,36,10.0,15.0,92,0.03,,,0.04,meteohub,2014-02-15 15:06:00,
2014-02-15 10:07:00,39.7,37.6,29.60,ENE,71,9.0,15.0,92,0.03,,,0.04,meteohub,2014-02-15 15:07:00,
2014-02-15 10:09:00,39.7,37.6,29.60,NE,42,5.0,15.0,92,0.03,,,0.04,meteohub,2014-02-15 15:09:00,
2014-02-15 10:10:00,39.7,37.6,29.60,ENE,65,8.0,15.0,92,0.03,,,0.04,meteohub,2014-02-15 15:10:00,
2014-02-15 10:11:00,39.6,37.4,29.60,NNE,33,4.0,15.0,92,0.02,,,0.04,meteohub,2014-02-15 15:11:00,
2014-02-15 10:12:00,39.6,37.4,29.60,NNE,22,8.0,15.0,92,0.02,,,0.04,meteohub,2014-02-15 15:12:00,
2014-02-15 10:14:00,39.7,37.6,29.60,ENE,60,11.0,15.0,92,0.02,,,0.04,meteohub,2014-02-15 15:14:00,
2014-02-15 10:15:00,39.7,37.6,29.60,ENE,57,12.0,15.0,92,0.02,,,0.04,meteohub,2014-02-15 15:15:00,
2014-02-15 10:16:00,39.7,37.6,29.60,ENE,78,11.0,15.0,92,0.02,,,0.04,meteohub,2014-02-15 15:16:00,
2014-02-15 10:17:00,39.7,37.6,29.60,NE,51,7.0,15.0,92,0.02,,,0.04,meteohub,2014-02-15 15:17:00,
2014-02-15 10:20:00,39.7,37.6,29.60,North,0,8.0,15.0,92,0.02,,,0.04,meteohub,2014-02-15 15:20:00,
2014-02-15 10:21:00,39.7,37.6,29.60,NNE,31,9.0,14.0,92,0.02,,,0.04,meteohub,2014-02-15 15:21:00,
2014-02-15 10:22:00,39.9,37.8,29.60,NE,43,6.0,14.0,92,0.02,,,0.04,meteohub,2014-02-15 15:22:00,
2014-02-15 10:23:00,39.9,37.8,29.60,NNE,30,4.0,14.0,92,0.02,,,0.04,meteohub,2014-02-15 15:23:00,
2014-02-15 10:25:00,39.9,37.8,29.60,ENE,67,8.0,13.0,92,0.02,,,0.04,meteohub,2014-02-15 15:25:00,
2014-02-15 10:26:00,39.9,37.8,29.60,NE,51,6.0,13.0,92,0.02,,,0.04,meteohub,2014-02-15 15:26:00,
2014-02-15 10:27:00,39.9,37.8,29.60,NNE,32,6.0,13.0,92,0.02,,,0.04,meteohub,2014-02-15 15:27:00,
2014-02-15 10:28:00,39.9,37.8,29.60,NE,43,7.0,13.0,92,0.02,,,0.04,meteohub,2014-02-15 15:28:00,
2014-02-15 10:31:00,39.9,37.8,29.60,ENE,59,3.0,12.0,92,0.01,,,0.04,meteohub,2014-02-15 15:31:00,
2014-02-15 10:32:00,39.9,37.8,29.60,NE,41,6.0,12.0,92,0.01,,,0.04,meteohub,2014-02-15 15:32:00,
2014-02-15 10:34:00,39.9,37.8,29.60,NE,36,9.0,12.0,92,0.01,,,0.04,meteohub,2014-02-15 15:34:00,
2014-02-15 10:35:00,39.9,37.8,29.60,NE,45,6.0,12.0,92,0.01,,,0.04,meteohub,2014-02-15 15:35:00,
2014-02-15 10:36:00,39.9,37.8,29.60,NE,54,4.0,12.0,92,0.01,,,0.04,meteohub,2014-02-15 15:36:00,
2014-02-15 10:37:00,39.9,37.8,29.60,NE,46,3.0,12.0,92,0.01,,,0.04,meteohub,2014-02-15 15:37:00,
2014-02-15 10:39:00,39.9,37.8,29.60,ENE,61,6.0,12.0,92,0.01,,,0.04,meteohub,2014-02-15 15:39:00,
2014-02-15 10:40:00,39.9,37.8,29.60,NNE,16,3.0,12.0,92,0.01,,,0.04,meteohub,2014-02-15 15:40:00,
2014-02-15 10:41:00,39.9,37.8,29.60,NE,34,4.0,12.0,92,0.01,,,0.04,meteohub,2014-02-15 15:41:00,
2014-02-15 10:42:00,39.9,37.8,29.60,NE,44,4.0,12.0,92,0.01,,,0.04,meteohub,2014-02-15 15:42:00,
2014-02-15 10:44:00,39.9,37.8,29.59,ENE,61,10.0,12.0,92,0.01,,,0.04,meteohub,2014-02-15 15:44:00,
2014-02-15 10:45:00,39.9,37.8,29.59,NNE,15,7.0,12.0,92,0.00,,,0.04,meteohub,2014-02-15 15:45:00,
2014-02-15 10:46:00,39.9,37.8,29.59,ENE,61,5.0,10.0,92,0.00,,,0.04,meteohub,2014-02-15 15:46:00,
2014-02-15 10:47:00,39.9,37.8,29.59,NNE,19,9.0,10.0,92,0.00,,,0.04,meteohub,2014-02-15 15:47:00,
2014-02-15 10:48:00,39.9,37.8,29.59,NNE,22,10.0,10.0,92,0.00,,,0.04,meteohub,2014-02-15 15:48:00,
2014-02-15 10:51:00,40.1,37.9,29.59,ENE,67,8.0,12.0,92,0.00,,,0.04,meteohub,2014-02-15 15:51:00,
2014-02-15 10:52:00,40.1,37.9,29.59,NE,48,9.0,12.0,92,0.00,,,0.04,meteohub,2014-02-15 15:52:00,
2014-02-15 10:53:00,40.1,37.9,29.59,NE,46,5.0,12.0,92,0.00,,,0.04,meteohub,2014-02-15 15:53:00,
2014-02-15 10:54:00,40.1,37.9,29.59,ENE,78,7.0,12.0,92,0.00,,,0.04,meteohub,2014-02-15 15:54:00,
2014-02-15 10:55:00,40.3,38.1,29.59,NNE,32,3.0,12.0,92,0.00,,,0.04,meteohub,2014-02-15 15:55:00,
2014-02-15 10:56:00,40.3,38.1,29.59,ENE,58,5.0,12.0,92,0.00,,,0.04,meteohub,2014-02-15 15:56:00,
2014-02-15 10:57:00,40.3,38.1,29.59,NNE,28,10.0,12.0,92,0.00,,,0.04,meteohub,2014-02-15 15:57:00,
2014-02-15 10:59:00,40.3,38.1,29.59,NE,36,9.0,12.0,92,0.00,,,0.04,meteohub,2014-02-15 15:59:00,
2014-02-15 11:00:00,40.5,38.7,29.59,ENE,67,5.0,12.0,93,0.00,,,0.04,meteohub,2014-02-15 16:00:00,
2014-02-15 11:03:00,40.5,38.7,29.59,NNE,20,7.0,12.0,93,0.00,,,0.04,meteohub,2014-02-15 16:03:00,
2014-02-15 11:04:00,40.5,38.7,29.59,NE,37,6.0,12.0,93,0.00,,,0.04,meteohub,2014-02-15 16:04:00,
2014-02-15 11:05:00,40.5,38.7,29.59,NE,49,9.0,12.0,93,0.00,,,0.04,meteohub,2014-02-15 16:05:00,
2014-02-15 11:06:00,40.6,38.5,29.59,NE,46,7.0,11.0,92,0.00,,,0.04,meteohub,2014-02-15 16:06:00,
2014-02-15 11:09:00,40.6,38.8,29.58,NNE,20,4.0,11.0,93,0.00,,,0.04,meteohub,2014-02-15 16:09:00,
2014-02-15 11:10:00,40.6,38.8,29.58,NNE,17,8.0,11.0,93,0.00,,,0.04,meteohub,2014-02-15 16:10:00,
2014-02-15 11:11:00,40.6,38.8,29.58,NE,40,5.0,11.0,93,0.00,,,0.04,meteohub,2014-02-15 16:11:00,
2014-02-15 11:12:00,40.8,38.7,29.58,NNE,27,5.0,11.0,92,0.00,,,0.04,meteohub,2014-02-15 16:12:00,
2014-02-15 11:14:00,40.8,38.7,29.58,North,11,3.0,11.0,92,0.00,,,0.04,meteohub,2014-02-15 16:14:00,
2014-02-15 11:15:00,40.8,38.7,29.57,NE,46,5.0,11.0,92,0.00,,,0.04,meteohub,2014-02-15 16:15:00,
2014-02-15 11:17:00,40.8,38.7,29.58,NNE,31,5.0,11.0,92,0.00,,,0.04,meteohub,2014-02-15 16:17:00,
2014-02-15 11:18:00,41.0,38.8,29.58,NE,36,4.0,11.0,92,0.00,,,0.04,meteohub,2014-02-15 16:18:00,
2014-02-15 11:19:00,41.0,39.2,29.58,NNE,21,5.0,11.0,93,0.00,,,0.04,meteohub,2014-02-15 16:19:00,
2014-02-15 11:20:00,41.0,39.2,29.57,NNE,27,5.0,11.0,93,0.00,,,0.04,meteohub,2014-02-15 16:20:00,
2014-02-15 11:22:00,41.2,39.4,29.57,North,0,6.0,11.0,93,0.00,,,0.04,meteohub,2014-02-15 16:22:00,
2014-02-15 11:23:00,41.2,39.4,29.57,North,9,4.0,11.0,93,0.00,,,0.04,meteohub,2014-02-15 16:23:00,
2014-02-15 11:24:00,41.4,39.6,29.57,NNE,22,4.0,11.0,93,0.00,,,0.04,meteohub,2014-02-15 16:24:00,
2014-02-15 11:25:00,41.4,39.6,29.57,NNW,342,4.0,11.0,93,0.00,,,0.04,meteohub,2014-02-15 16:25:00,
2014-02-15 11:27:00,41.4,39.6,29.57,NNE,21,7.0,11.0,93,0.00,,,0.04,meteohub,2014-02-15 16:27:00,
2014-02-15 11:28:00,41.4,39.2,29.57,North,355,5.0,11.0,92,0.00,,,0.04,meteohub,2014-02-15 16:28:00,
2014-02-15 11:30:00,41.4,39.2,29.57,North,11,7.0,11.0,92,0.00,,,0.04,meteohub,2014-02-15 16:30:00,
2014-02-15 11:32:00,41.2,39.0,29.56,NNE,27,6.0,10.0,92,0.00,,,0.04,meteohub,2014-02-15 16:32:00,
2014-02-15 11:33:00,40.8,38.7,29.56,North,11,7.0,10.0,92,0.00,,,0.04,meteohub,2014-02-15 16:33:00,
2014-02-15 11:34:00,40.8,38.7,29.56,NNE,25,9.0,10.0,92,0.00,,,0.04,meteohub,2014-02-15 16:34:00,
2014-02-15 11:35:00,40.8,38.7,29.56,NE,44,7.0,10.0,92,0.00,,,0.04,meteohub,2014-02-15 16:35:00,
2014-02-15 11:37:00,40.8,38.7,29.56,NNE,26,8.0,9.0,92,0.00,,,0.04,meteohub,2014-02-15 16:37:00,
2014-02-15 11:38:00,40.8,38.7,29.56,NNE,18,5.0,9.0,92,0.00,,,0.04,meteohub,2014-02-15 16:38:00,
2014-02-15 11:39:00,40.8,38.7,29.56,NE,38,5.0,9.0,92,0.00,,,0.04,meteohub,2014-02-15 16:39:00,
2014-02-15 11:40:00,40.8,38.7,29.55,North,9,9.0,12.0,92,0.00,,,0.04,meteohub,2014-02-15 16:40:00,
2014-02-15 11:41:00,41.0,38.8,29.55,NNE,19,5.0,12.0,92,0.00,,,0.04,meteohub,2014-02-15 16:41:00,
2014-02-15 11:42:00,41.0,38.8,29.55,North,0,9.0,12.0,92,0.00,,,0.04,meteohub,2014-02-15 16:42:00,
2014-02-15 11:43:00,41.0,38.8,29.55,NNE,24,10.0,12.0,92,0.00,,,0.04,meteohub,2014-02-15 16:43:00,
2014-02-15 11:44:00,41.0,38.8,29.55,NNE,23,9.0,12.0,92,0.00,,,0.04,meteohub,2014-02-15 16:44:00,
2014-02-15 11:45:00,41.2,39.0,29.55,NNE,27,8.0,12.0,92,0.00,,,0.04,meteohub,2014-02-15 16:45:00,
2014-02-15 11:49:00,41.2,39.0,29.55,NNE,23,4.0,12.0,92,0.00,,,0.04,meteohub,2014-02-15 16:49:00,
2014-02-15 11:50:00,41.2,39.0,29.55,NNE,28,10.0,13.0,92,0.00,,,0.04,meteohub,2014-02-15 16:50:00,
2014-02-15 11:54:00,41.0,38.8,29.54,North,0,10.0,13.0,92,0.00,,,0.04,meteohub,2014-02-15 16:54:00,
2014-02-15 11:56:00,40.8,38.7,29.55,NNE,24,6.0,13.0,92,0.00,,,0.04,meteohub,2014-02-15 16:56:00,
2014-02-15 11:57:00,40.8,38.7,29.55,North,0,4.0,13.0,92,0.00,,,0.04,meteohub,2014-02-15 16:57:00,
2014-02-15 11:59:00,40.8,38.7,29.54,NNE,24,3.0,13.0,92,0.00,,,0.04,meteohub,2014-02-15 16:59:00,
2014-02-15 12:00:00,40.8,38.7,29.53,NNE,30,8.0,13.0,92,0.00,,,0.04,meteohub,2014-02-15 17:00:00,
2014-02-15 12:01:00,40.8,38.7,29.53,NNE,15,7.0,13.0,92,0.00,,,0.04,meteohub,2014-02-15 17:01:00,
2014-02-15 12:04:00,40.6,38.5,29.54,NNE,12,4.0,13.0,92,0.00,,,0.04,meteohub,2014-02-15 17:04:00,
2014-02-15 12:05:00,40.6,38.5,29.54,NNE,14,5.0,13.0,92,0.00,,,0.04,meteohub,2014-02-15 17:05:00,
2014-02-15 12:06:00,40.6,38.5,29.54,NNE,30,8.0,13.0,92,0.00,,,0.04,meteohub,2014-02-15 17:06:00,
2014-02-15 12:09:00,40.3,38.1,29.54,NNE,26,12.0,13.0,92,0.00,,,0.04,meteohub,2014-02-15 17:09:00,
2014-02-15 12:10:00,40.1,37.8,29.54,North,355,6.0,13.0,91,0.00,,,0.04,meteohub,2014-02-15 17:10:00,
2014-02-15 12:11:00,40.1,37.9,29.54,North,5,10.0,13.0,92,0.00,,,0.04,meteohub,2014-02-15 17:11:00,
2014-02-15 12:13:00,39.9,37.8,29.54,NNE,26,6.0,13.0,92,0.00,,,0.04,meteohub,2014-02-15 17:13:00,
2014-02-15 12:14:00,39.9,37.8,29.54,NNE,25,12.0,13.0,92,0.00,,,0.04,meteohub,2014-02-15 17:14:00,
2014-02-15 12:16:00,39.7,37.6,29.54,NNE,25,13.0,13.0,92,0.00,,,0.04,meteohub,2014-02-15 17:16:00,
2014-02-15 12:17:00,39.7,37.6,29.54,NNE,30,9.0,13.0,92,0.00,,,0.04,meteohub,2014-02-15 17:17:00,
2014-02-15 12:19:00,39.6,37.4,29.53,NNE,24,14.0,14.0,92,0.00,,,0.04,meteohub,2014-02-15 17:19:00,
2014-02-15 12:21:00,39.6,37.4,29.53,NNE,29,9.0,15.0,92,0.00,,,0.04,meteohub,2014-02-15 17:21:00,
2014-02-15 12:22:00,39.4,37.2,29.53,NNE,26,10.0,15.0,92,0.00,,,0.04,meteohub,2014-02-15 17:22:00,
2014-02-15 12:25:00,39.0,36.7,29.52,North,5,14.0,15.0,91,0.00,,,0.04,meteohub,2014-02-15 17:25:00,
2014-02-15 12:26:00,39.0,36.7,29.52,NNE,20,8.0,15.0,91,0.00,,,0.04,meteohub,2014-02-15 17:26:00,
2014-02-15 12:27:00,39.0,36.9,29.52,NE,46,12.0,15.0,92,0.00,,,0.04,meteohub,2014-02-15 17:27:00,
2014-02-15 12:30:00,38.7,36.5,29.52,NE,36,13.0,15.0,92,0.00,,,0.04,meteohub,2014-02-15 17:30:00,
2014-02-15 12:31:00,38.7,36.3,29.52,NNE,26,16.0,17.0,91,0.00,,,0.04,meteohub,2014-02-15 17:31:00,
2014-02-15 12:33:00,38.5,36.1,29.52,North,9,9.0,17.0,91,0.00,,,0.04,meteohub,2014-02-15 17:33:00,
2014-02-15 12:34:00,38.3,36.0,29.52,North,355,11.0,17.0,91,0.00,,,0.04,meteohub,2014-02-15 17:34:00,
2014-02-15 12:35:00,38.1,36.0,29.51,NNE,13,9.0,17.0,92,0.00,,,0.04,meteohub,2014-02-15 17:35:00,
2014-02-15 12:36:00,38.1,36.0,29.51,NNE,22,10.0,19.0,92,0.00,,,0.04,meteohub,2014-02-15 17:36:00,
2014-02-15 12:37:00,37.9,35.8,29.51,NNE,28,9.0,19.0,92,0.00,,,0.04,meteohub,2014-02-15 17:37:00,
2014-02-15 12:39:00,37.9,35.8,29.51,NE,38,10.0,19.0,92,0.00,,,0.04,meteohub,2014-02-15 17:39:00,
2014-02-15 12:40:00,37.9,35.8,29.51,NNE,15,9.0,19.0,92,0.00,,,0.04,meteohub,2014-02-15 17:40:00,
2014-02-15 12:41:00,37.9,35.8,29.50,NNE,16,12.0,21.0,92,0.00,,,0.04,meteohub,2014-02-15 17:41:00,
2014-02-15 12:43:00,37.9,35.8,29.50,NW,311,9.0,21.0,92,0.00,,,0.04,meteohub,2014-02-15 17:43:00,
2014-02-15 12:44:00,37.9,35.8,29.50,NNE,17,11.0,21.0,92,0.00,,,0.04,meteohub,2014-02-15 17:44:00,
2014-02-15 12:45:00,37.9,35.8,29.50,NNE,24,5.0,21.0,92,0.00,,,0.04,meteohub,2014-02-15 17:45:00,
2014-02-15 12:47:00,37.9,35.8,29.50,North,5,9.0,21.0,92,0.00,,,0.04,meteohub,2014-02-15 17:47:00,
2014-02-15 12:48:00,38.1,36.0,29.50,North,355,8.0,21.0,92,0.00,,,0.04,meteohub,2014-02-15 17:48:00,
2014-02-15 12:49:00,38.1,36.0,29.50,NNE,29,8.0,21.0,92,0.00,,,0.04,meteohub,2014-02-15 17:49:00,
2014-02-15 12:50:00,37.9,35.8,29.50,NNE,31,17.0,21.0,92,0.00,,,0.04,meteohub,2014-02-15 17:50:00,
2014-02-15 12:52:00,37.9,35.8,29.51,NNE,26,12.0,21.0,92,0.00,,,0.04,meteohub,2014-02-15 17:52:00,
2014-02-15 12:53:00,37.9,35.8,29.50,NE,46,10.0,21.0,92,0.00,,,0.04,meteohub,2014-02-15 17:53:00,
2014-02-15 12:54:00,37.9,35.8,29.50,NNW,348,11.0,21.0,92,0.00,,,0.04,meteohub,2014-02-15 17:54:00,
2014-02-15 12:55:00,37.8,35.6,29.50,NE,46,10.0,19.0,92,0.00,,,0.04,meteohub,2014-02-15 17:55:00,
2014-02-15 12:56:00,37.8,35.6,29.50,NNE,26,14.0,19.0,92,0.00,,,0.04,meteohub,2014-02-15 17:56:00,
2014-02-15 12:57:00,37.8,35.6,29.50,NE,36,10.0,19.0,92,0.00,,,0.04,meteohub,2014-02-15 17:57:00,
2014-02-15 12:59:00,37.6,35.4,29.50,NE,54,6.0,19.0,92,0.00,,,0.04,meteohub,2014-02-15 17:59:00,
2014-02-15 13:01:00,37.6,35.4,29.50,North,355,12.0,19.0,92,0.00,,,0.04,meteohub,2014-02-15 18:01:00,
2014-02-15 13:02:00,37.6,35.4,29.50,North,355,8.0,19.0,92,0.00,,,0.04,meteohub,2014-02-15 18:02:00,
2014-02-15 13:03:00,37.6,35.4,29.50,North,5,9.0,19.0,92,0.00,,,0.04,meteohub,2014-02-15 18:03:00,
2014-02-15 13:04:00,37.6,35.4,29.49,NE,34,16.0,19.0,92,0.00,,,0.04,meteohub,2014-02-15 18:04:00,
2014-02-15 13:06:00,37.4,35.2,29.49,North,5,15.0,19.0,92,0.00,,,0.04,meteohub,2014-02-15 18:06:00,
2014-02-15 13:07:00,37.4,35.2,29.49,NNE,25,5.0,19.0,92,0.00,,,0.04,meteohub,2014-02-15 18:07:00,
2014-02-15 13:08:00,37.4,35.2,29.48,NNE,15,11.0,19.0,92,0.00,,,0.04,meteohub,2014-02-15 18:08:00,
2014-02-15 13:09:00,37.4,35.2,29.48,WNW,288,10.0,19.0,92,0.00,,,0.04,meteohub,2014-02-15 18:09:00,
2014-02-15 13:11:00,37.2,35.1,29.47,NNE,23,9.0,22.0,92,0.00,,,0.04,meteohub,2014-02-15 18:11:00,
2014-02-15 13:12:00,37.2,35.1,29.47,North,11,11.0,22.0,92,0.00,,,0.04,meteohub,2014-02-15 18:12:00,
2014-02-15 13:13:00,37.2,35.1,29.47,NNE,13,8.0,22.0,92,0.00,,,0.04,meteohub,2014-02-15 18:13:00,
2014-02-15 13:15:00,37.2,35.1,29.47,NNE,22,5.0,22.0,92,0.00,,,0.04,meteohub,2014-02-15 18:15:00,
2014-02-15 13:16:00,37.2,34.9,29.47,North,5,14.0,22.0,91,0.00,,,0.04,meteohub,2014-02-15 18:16:00,
2014-02-15 13:18:00,37.2,34.9,29.47,North,351,9.0,22.0,91,0.00,,,0.04,meteohub,2014-02-15 18:18:00,
2014-02-15 13:20:00,37.0,34.7,29.48,NNE,18,14.0,20.0,91,0.00,,,0.04,meteohub,2014-02-15 18:20:00,
2014-02-15 13:21:00,37.0,34.7,29.47,North,0,18.0,20.0,91,0.00,,,0.04,meteohub,2014-02-15 18:21:00,
2014-02-15 13:22:00,37.0,34.7,29.47,NNE,19,12.0,20.0,91,0.00,,,0.04,meteohub,2014-02-15 18:22:00,
2014-02-15 13:23:00,37.0,34.7,29.47,North,0,8.0,20.0,91,0.00,,,0.04,meteohub,2014-02-15 18:23:00,
2014-02-15 13:24:00,37.0,34.7,29.47,NNE,24,15.0,20.0,91,0.00,,,0.04,meteohub,2014-02-15 18:24:00,
2014-02-15 13:25:00,37.0,34.7,29.47,North,350,11.0,20.0,91,0.00,,,0.04,meteohub,2014-02-15 18:25:00,
2014-02-15 13:26:00,37.0,34.7,29.48,NNE,14,7.0,21.0,91,0.00,,,0.04,meteohub,2014-02-15 18:26:00,
2014-02-15 13:27:00,37.0,34.7,29.48,North,5,10.0,21.0,91,0.00,,,0.04,meteohub,2014-02-15 18:27:00,
2014-02-15 13:29:00,37.0,34.7,29.48,NNE,17,20.0,21.0,91,0.00,,,0.04,meteohub,2014-02-15 18:29:00,
2014-02-15 13:30:00,37.0,34.7,29.48,NNE,21,15.0,21.0,91,0.00,,,0.04,meteohub,2014-02-15 18:30:00,
2014-02-15 13:32:00,37.0,34.7,29.47,North,11,12.0,21.0,91,0.00,,,0.04,meteohub,2014-02-15 18:32:00,
2014-02-15 13:34:00,37.0,34.7,29.48,NNE,17,16.0,21.0,91,0.00,,,0.04,meteohub,2014-02-15 18:34:00,
2014-02-15 13:35:00,36.9,34.5,29.48,NNE,14,9.0,22.0,91,0.00,,,0.04,meteohub,2014-02-15 18:35:00,
2014-02-15 13:36:00,36.9,34.5,29.48,NNE,24,13.0,22.0,91,0.00,,,0.04,meteohub,2014-02-15 18:36:00,
2014-02-15 13:37:00,37.0,34.7,29.48,NNW,329,20.0,22.0,91,0.00,,,0.04,meteohub,2014-02-15 18:37:00,
2014-02-15 13:38:00,37.0,34.7,29.47,NE,34,11.0,22.0,91,0.00,,,0.04,meteohub,2014-02-15 18:38:00,
2014-02-15 13:39:00,37.0,34.7,29.47,NNE,32,13.0,22.0,91,0.00,,,0.04,meteohub,2014-02-15 18:39:00,
2014-02-15 13:40:00,37.0,34.7,29.48,NNE,24,10.0,22.0,91,0.00,,,0.04,meteohub,2014-02-15 18:40:00,
2014-02-15 13:41:00,36.9,34.5,29.48,North,0,10.0,22.0,91,0.00,,,0.04,meteohub,2014-02-15 18:41:00,
2014-02-15 13:42:00,37.0,34.7,29.48,NNE,24,12.0,22.0,91,0.00,,,0.04,meteohub,2014-02-15 18:42:00,
2014-02-15 13:43:00,37.0,34.7,29.48,NE,42,12.0,22.0,91,0.00,,,0.04,meteohub,2014-02-15 18:43:00,
2014-02-15 13:45:00,37.0,34.7,29.49,NNW,344,13.0,22.0,91,0.00,,,0.04,meteohub,2014-02-15 18:45:00,
2014-02-15 13:46:00,37.0,34.7,29.49,NE,53,10.0,22.0,91,0.00,,,0.04,meteohub,2014-02-15 18:46:00,
2014-02-15 13:47:00,37.0,34.3,29.49,NNE,23,10.0,22.0,90,0.00,,,0.04,meteohub,2014-02-15 18:47:00,
2014-02-15 13:48:00,37.0,34.3,29.49,NNW,342,14.0,22.0,90,0.00,,,0.04,meteohub,2014-02-15 18:48:00,
2014-02-15 13:49:00,37.0,34.3,29.49,NNE,27,11.0,22.0,90,0.00,,,0.04,meteohub,2014-02-15 18:49:00,
2014-02-15 13:50:00,37.0,34.3,29.49,NNE,18,10.0,21.0,90,0.00,,,0.04,meteohub,2014-02-15 18:50:00,
2014-02-15 13:51:00,37.0,34.3,29.49,NNE,32,13.0,21.0,90,0.00,,,0.04,meteohub,2014-02-15 18:51:00,
2014-02-15 13:52:00,37.0,34.3,29.49,North,0,16.0,21.0,90,0.00,,,0.04,meteohub,2014-02-15 18:52:00,
2014-02-15 13:53:00,37.0,34.3,29.49,NNW,348,12.0,21.0,90,0.00,,,0.04,meteohub,2014-02-15 18:53:00,
2014-02-15 13:56:00,37.0,34.3,29.49,NNE,15,8.0,21.0,90,0.00,,,0.04,meteohub,2014-02-15 18:56:00,
2014-02-15 13:57:00,37.2,34.5,29.49,NNE,25,6.0,21.0,90,0.00,,,0.04,meteohub,2014-02-15 18:57:00,
2014-02-15 13:58:00,37.2,34.5,29.49,North,5,13.0,21.0,90,0.00,,,0.04,meteohub,2014-02-15 18:58:00,
2014-02-15 13:59:00,37.2,34.5,29.49,NNE,28,19.0,21.0,90,0.00,,,0.04,meteohub,2014-02-15 18:59:00,
2014-02-15 14:01:00,37.2,34.5,29.49,NNE,23,14.0,21.0,90,0.00,,,0.04,meteohub,2014-02-15 19:01:00,
2014-02-15 14:02:00,37.2,34.5,29.49,NNE,17,13.0,21.0,90,0.00,,,0.04,meteohub,2014-02-15 19:02:00,
2014-02-15 14:03:00,37.2,34.5,29.49,NNE,20,14.0,21.0,90,0.00,,,0.04,meteohub,2014-02-15 19:03:00,
2014-02-15 14:04:00,37.2,34.5,29.49,NNE,22,16.0,21.0,90,0.00,,,0.04,meteohub,2014-02-15 19:04:00,
2014-02-15 14:06:00,37.2,34.3,29.49,NE,38,12.0,23.0,89,0.00,,,0.04,meteohub,2014-02-15 19:06:00,
2014-02-15 14:08:00,37.2,34.3,29.49,North,5,16.0,23.0,89,0.00,,,0.04,meteohub,2014-02-15 19:08:00,
2014-02-15 14:09:00,37.2,34.3,29.49,North,10,15.0,23.0,89,0.00,,,0.04,meteohub,2014-02-15 19:09:00,
2014-02-15 14:11:00,37.2,34.3,29.49,NE,34,5.0,24.0,89,0.00,,,0.04,meteohub,2014-02-15 19:11:00,
2014-02-15 14:13:00,37.2,34.3,29.49,North,9,11.0,24.0,89,0.00,,,0.04,meteohub,2014-02-15 19:13:00,
2014-02-15 14:15:00,37.2,34.3,29.49,NNE,13,4.0,24.0,89,0.00,,,0.04,meteohub,2014-02-15 19:15:00,
2014-02-15 14:16:00,37.2,34.3,29.49,NE,43,13.0,24.0,89,0.00,,,0.04,meteohub,2014-02-15 19:16:00,
2014-02-15 14:18:00,37.2,34.3,29.49,NNE,27,12.0,24.0,89,0.00,,,0.04,meteohub,2014-02-15 19:18:00,
2014-02-15 14:19:00,37.2,34.3,29.49,NNE,15,19.0,24.0,89,0.00,,,0.04,meteohub,2014-02-15 19:19:00,
2014-02-15 14:20:00,37.2,34.3,29.49,NNE,17,19.0,24.0,89,0.00,,,0.04,meteohub,2014-02-15 19:20:00,
2014-02-15 14:21:00,37.4,34.5,29.49,NE,39,20.0,24.0,89,0.00,,,0.04,meteohub,2014-02-15 19:21:00,
2014-02-15 14:22:00,37.4,34.5,29.49,NNE,17,10.0,24.0,89,0.00,,,0.04,meteohub,2014-02-15 19:22:00,
2014-02-15 14:23:00,37.4,34.5,29.49,NNE,26,15.0,24.0,89,0.00,,,0.04,meteohub,2014-02-15 19:23:00,
2014-02-15 14:25:00,37.4,34.5,29.50,North,9,14.0,25.0,89,0.00,,,0.04,meteohub,2014-02-15 19:25:00,
2014-02-15 14:27:00,37.4,34.5,29.50,North,349,9.0,25.0,89,0.00,,,0.04,meteohub,2014-02-15 19:27:00,
2014-02-15 14:28:00,37.2,34.3,29.50,North,355,3.0,25.0,89,0.00,,,0.04,meteohub,2014-02-15 19:28:00,
2014-02-15 14:30:00,37.0,34.2,29.50,North,355,5.0,25.0,89,0.00,,,0.04,meteohub,2014-02-15 19:30:00,
2014-02-15 14:32:00,36.9,33.6,29.50,NNE,25,10.0,25.0,88,0.00,,,0.04,meteohub,2014-02-15 19:32:00,
2014-02-15 14:33:00,36.9,33.6,29.50,NNE,13,9.0,25.0,88,0.00,,,0.04,meteohub,2014-02-15 19:33:00,
2014-02-15 14:35:00,36.7,33.4,29.50,North,11,7.0,25.0,88,0.00,,,0.04,meteohub,2014-02-15 19:35:00,
2014-02-15 14:36:00,36.7,33.4,29.49,NNE,16,5.0,25.0,88,0.00,,,0.04,meteohub,2014-02-15 19:36:00,
2014-02-15 14:37:00,36.7,33.4,29.49,NNE,24,11.0,25.0,88,0.00,,,0.04,meteohub,2014-02-15 19:37:00,
2014-02-15 14:38:00,36.7,33.4,29.49,NNE,33,5.0,25.0,88,0.00,,,0.04,meteohub,2014-02-15 19:38:00,
2014-02-15 14:39:00,36.7,33.4,29.49,NNW,341,9.0,25.0,88,0.00,,,0.04,meteohub,2014-02-15 19:39:00,
2014-02-15 14:40:00,36.5,33.3,29.49,North,9,13.0,20.0,88,0.00,,,0.04,meteohub,2014-02-15 19:40:00,
2014-02-15 14:41:00,36.5,33.6,29.49,NE,34,9.0,20.0,89,0.00,,,0.04,meteohub,2014-02-15 19:41:00,
2014-02-15 14:43:00,36.3,33.4,29.49,NE,46,9.0,20.0,89,0.00,,,0.04,meteohub,2014-02-15 19:43:00,
2014-02-15 14:45:00,36.3,33.4,29.48,NNE,33,15.0,22.0,89,0.00,,,0.04,meteohub,2014-02-15 19:45:00,
2014-02-15 14:46:00,36.3,33.4,29.48,NE,43,13.0,22.0,89,0.00,,,0.04,meteohub,2014-02-15 19:46:00,
2014-02-15 14:47:00,36.3,33.4,29.48,NNE,18,20.0,22.0,89,0.00,,,0.04,meteohub,2014-02-15 19:47:00,
2014-02-15 14:48:00,36.1,33.3,29.48,NNE,19,15.0,22.0,89,0.00,,,0.04,meteohub,2014-02-15 19:48:00,
2014-02-15 14:49:00,36.1,33.3,29.48,NNW,344,9.0,22.0,89,0.00,,,0.04,meteohub,2014-02-15 19:49:00,
2014-02-15 14:50:00,36.1,32.9,29.48,NW,306,4.0,22.0,88,0.00,,,0.04,meteohub,2014-02-15 19:50:00,
2014-02-15 14:51:00,36.0,33.1,29.48,WNW,289,9.0,22.0,89,0.00,,,0.04,meteohub,2014-02-15 19:51:00,
2014-02-15 14:52:00,36.0,33.1,29.47,North,11,12.0,22.0,89,0.00,,,0.04,meteohub,2014-02-15 19:52:00,
2014-02-15 14:53:00,36.0,33.1,29.47,North,355,11.0,22.0,89,0.00,,,0.04,meteohub,2014-02-15 19:53:00,
2014-02-15 14:54:00,36.0,33.1,29.47,NE,48,10.0,22.0,89,0.00,,,0.04,meteohub,2014-02-15 19:54:00,
2014-02-15 14:56:00,35.8,32.9,29.47,NNE,24,6.0,22.0,89,0.00,,,0.04,meteohub,2014-02-15 19:56:00,
2014-02-15 14:57:00,35.8,32.9,29.46,North,5,12.0,22.0,89,0.00,,,0.04,meteohub,2014-02-15 19:57:00,
2014-02-15 14:58:00,35.8,32.9,29.46,NNE,20,8.0,22.0,89,0.00,,,0.04,meteohub,2014-02-15 19:58:00,
2014-02-15 15:00:00,35.8,32.9,29.47,NNE,27,11.0,21.0,89,0.00,,,0.04,meteohub,2014-02-15 20:00:00,
2014-02-15 15:01:00,35.6,32.7,29.47,NNE,32,9.0,21.0,89,0.00,,,0.04,meteohub,2014-02-15 20:01:00,
2014-02-15 15:02:00,35.6,32.7,29.47,North,355,6.0,21.0,89,0.00,,,0.04,meteohub,2014-02-15 20:02:00,
2014-02-15 15:03:00,35.6,32.7,29.47,NNE,25,6.0,21.0,89,0.00,,,0.04,meteohub,2014-02-15 20:03:00,
2014-02-15 15:05:00,35.4,32.7,29.49,NNW,345,13.0,21.0,90,0.00,,,0.04,meteohub,2014-02-15 20:05:00,
2014-02-15 15:06:00,35.4,32.7,29.49,NE,38,13.0,21.0,90,0.00,,,0.04,meteohub,2014-02-15 20:06:00,
2014-02-15 15:07:00,35.4,32.7,29.49,NNE,19,9.0,21.0,90,0.00,,,0.04,meteohub,2014-02-15 20:07:00,
2014-02-15 15:08:00,35.4,32.7,29.49,NE,39,5.0,21.0,90,0.00,,,0.04,meteohub,2014-02-15 20:08:00,
2014-02-15 15:10:00,35.2,32.5,29.49,NNE,28,6.0,21.0,90,0.01,,,0.05,meteohub,2014-02-15 20:10:00,
2014-02-15 15:11:00,35.2,32.5,29.49,NNW,348,9.0,21.0,90,0.01,,,0.05,meteohub,2014-02-15 20:11:00,
2014-02-15 15:12:00,35.2,32.5,29.49,NE,42,5.0,21.0,90,0.01,,,0.05,meteohub,2014-02-15 20:12:00,
2014-02-15 15:13:00,35.2,32.5,29.48,NNE,30,12.0,21.0,90,0.01,,,0.05,meteohub,2014-02-15 20:13:00,
2014-02-15 15:14:00,35.2,32.5,29.48,NNE,17,12.0,21.0,90,0.01,,,0.05,meteohub,2014-02-15 20:14:00,
2014-02-15 15:16:00,35.2,32.5,29.47,North,5,12.0,22.0,90,0.01,,,0.05,meteohub,2014-02-15 20:16:00,
2014-02-15 15:17:00,35.2,32.5,29.48,NNE,19,16.0,22.0,90,0.01,,,0.05,meteohub,2014-02-15 20:17:00,
2014-02-15 15:18:00,35.1,32.4,29.48,North,0,18.0,22.0,90,0.01,,,0.05,meteohub,2014-02-15 20:18:00,
2014-02-15 15:19:00,35.1,32.4,29.48,ENE,72,6.0,22.0,90,0.01,,,0.05,meteohub,2014-02-15 20:19:00,
2014-02-15 15:21:00,35.1,32.4,29.48,NNE,26,9.0,23.0,90,0.02,,,0.06,meteohub,2014-02-15 20:21:00,
2014-02-15 15:22:00,35.1,32.7,29.48,North,5,15.0,23.0,91,0.02,,,0.06,meteohub,2014-02-15 20:22:00,
2014-02-15 15:23:00,35.1,32.7,29.48,NE,36,5.0,23.0,91,0.02,,,0.06,meteohub,2014-02-15 20:23:00,
2014-02-15 15:24:00,35.1,32.7,29.48,NNE,28,9.0,23.0,91,0.02,,,0.06,meteohub,2014-02-15 20:24:00,
2014-02-15 15:26:00,35.1,32.7,29.48,NE,37,12.0,23.0,91,0.02,,,0.06,meteohub,2014-02-15 20:26:00,
2014-02-15 15:27:00,35.1,32.7,29.48,NE,34,13.0,23.0,91,0.02,,,0.06,meteohub,2014-02-15 20:27:00,
2014-02-15 15:29:00,35.1,32.7,29.47,WNW,299,5.0,23.0,91,0.02,,,0.06,meteohub,2014-02-15 20:29:00,
2014-02-15 15:30:00,35.1,32.7,29.47,NNW,327,11.0,22.0,91,0.02,,,0.06,meteohub,2014-02-15 20:30:00,
2014-02-15 15:31:00,35.1,32.7,29.47,NNE,28,13.0,22.0,91,0.02,,,0.06,meteohub,2014-02-15 20:31:00,
2014-02-15 15:32:00,34.9,32.5,29.47,NNE,14,13.0,22.0,91,0.02,,,0.06,meteohub,2014-02-15 20:32:00,
2014-02-15 15:33:00,34.9,32.5,29.47,NNE,17,16.0,22.0,91,0.02,,,0.06,meteohub,2014-02-15 20:33:00,
2014-02-15 15:34:00,34.9,32.5,29.47,NE,54,6.0,22.0,91,0.02,,,0.06,meteohub,2014-02-15 20:34:00,
2014-02-15 15:35:00,34.9,32.5,29.47,North,355,9.0,21.0,91,0.02,,,0.06,meteohub,2014-02-15 20:35:00,
2014-02-15 15:36:00,35.1,32.7,29.48,North,0,13.0,21.0,91,0.02,,,0.06,meteohub,2014-02-15 20:36:00,
2014-02-15 15:37:00,34.9,32.5,29.48,NE,34,19.0,21.0,91,0.02,,,0.06,meteohub,2014-02-15 20:37:00,
2014-02-15 15:38:00,34.9,32.5,29.48,NNE,15,9.0,21.0,91,0.02,,,0.06,meteohub,2014-02-15 20:38:00,
2014-02-15 15:40:00,34.9,32.5,29.49,NNW,339,8.0,21.0,91,0.02,,,0.06,meteohub,2014-02-15 20:40:00,
2014-02-15 15:42:00,34.9,32.5,29.49,NNE,14,7.0,21.0,91,0.02,,,0.06,meteohub,2014-02-15 20:42:00,
2014-02-15 15:43:00,34.9,32.5,29.49,NNE,31,6.0,21.0,91,0.02,,,0.06,meteohub,2014-02-15 20:43:00,
2014-02-15 15:45:00,34.9,32.5,29.49,West,265,4.0,21.0,91,0.02,,,0.06,meteohub,2014-02-15 20:45:00,
2014-02-15 15:47:00,34.9,32.5,29.49,WNW,294,3.0,21.0,91,0.02,,,0.06,meteohub,2014-02-15 20:47:00,
2014-02-15 15:48:00,34.7,32.4,29.49,NW,316,1.0,21.0,91,0.02,,,0.06,meteohub,2014-02-15 20:48:00,
2014-02-15 15:49:00,34.9,32.5,29.49,North,0,0.0,21.0,91,0.02,,,0.06,meteohub,2014-02-15 20:49:00,
2014-02-15 15:50:00,34.7,32.4,29.49,ENE,75,12.0,21.0,91,0.02,,,0.06,meteohub,2014-02-15 20:50:00,
2014-02-15 15:52:00,34.5,32.2,29.49,East,90,6.0,19.0,91,0.02,,,0.06,meteohub,2014-02-15 20:52:00,
2014-02-15 15:54:00,34.5,32.2,29.49,NNE,19,2.0,19.0,91,0.02,,,0.06,meteohub,2014-02-15 20:54:00,
2014-02-15 15:55:00,34.5,32.2,29.50,WSW,257,5.0,19.0,91,0.02,,,0.06,meteohub,2014-02-15 20:55:00,
2014-02-15 15:58:00,34.3,32.0,29.50,NE,53,9.0,14.0,91,0.02,,,0.06,meteohub,2014-02-15 20:58:00,
2014-02-15 15:59:00,34.3,32.0,29.50,West,265,8.0,14.0,91,0.02,,,0.06,meteohub,2014-02-15 20:59:00,
2014-02-15 16:00:00,34.3,32.0,29.50,WNW,286,2.0,14.0,91,0.02,,,0.06,meteohub,2014-02-15 21:00:00,
2014-02-15 16:01:00,34.3,32.0,29.50,NE,51,3.0,14.0,91,0.02,,,0.06,meteohub,2014-02-15 21:01:00,
2014-02-15 16:03:00,34.3,32.0,29.51,NNE,12,2.0,14.0,91,0.02,,,0.06,meteohub,2014-02-15 21:03:00,
2014-02-15 16:04:00,34.2,31.8,29.52,North,5,5.0,14.0,91,0.02,,,0.06,meteohub,2014-02-15 21:04:00,
2014-02-15 16:05:00,34.2,32.0,29.52,WSW,251,4.0,14.0,92,0.01,,,0.06,meteohub,2014-02-15 21:05:00,
2014-02-15 16:06:00,34.2,32.0,29.52,NNE,22,3.0,14.0,92,0.01,,,0.06,meteohub,2014-02-15 21:06:00,
2014-02-15 16:08:00,34.2,31.8,29.52,WNW,290,5.0,14.0,91,0.01,,,0.06,meteohub,2014-02-15 21:08:00,
2014-02-15 16:10:00,34.0,31.8,29.52,West,272,2.0,14.0,92,0.01,,,0.06,meteohub,2014-02-15 21:10:00,
2014-02-15 16:11:00,34.0,31.8,29.52,NNE,30,5.0,14.0,92,0.01,,,0.06,meteohub,2014-02-15 21:11:00,
2014-02-15 16:13:00,34.0,31.8,29.52,East,92,4.0,14.0,92,0.01,,,0.06,meteohub,2014-02-15 21:13:00,
2014-02-15 16:15:00,33.8,31.6,29.52,NNE,24,12.0,13.0,92,0.01,,,0.06,meteohub,2014-02-15 21:15:00,
2014-02-15 16:16:00,33.8,31.6,29.52,NNE,16,7.0,13.0,92,0.01,,,0.06,meteohub,2014-02-15 21:16:00,
2014-02-15 16:17:00,33.8,31.6,29.52,NW,319,4.0,13.0,92,0.01,,,0.06,meteohub,2014-02-15 21:17:00,
2014-02-15 16:18:00,33.6,31.5,29.51,NNE,24,9.0,13.0,92,0.01,,,0.06,meteohub,2014-02-15 21:18:00,
2014-02-15 16:21:00,33.6,31.5,29.51,North,355,9.0,14.0,92,0.00,,,0.06,meteohub,2014-02-15 21:21:00,
2014-02-15 16:22:00,33.6,31.5,29.52,NNE,30,4.0,14.0,92,0.00,,,0.06,meteohub,2014-02-15 21:22:00,
2014-02-15 16:23:00,33.6,31.5,29.52,NNW,342,1.0,14.0,92,0.00,,,0.06,meteohub,2014-02-15 21:23:00,
2014-02-15 16:26:00,33.4,31.3,29.52,NNW,339,4.0,18.0,92,0.00,,,0.06,meteohub,2014-02-15 21:26:00,
2014-02-15 16:27:00,33.4,31.3,29.52,NE,47,6.0,18.0,92,0.00,,,0.06,meteohub,2014-02-15 21:27:00,
2014-02-15 16:29:00,33.4,31.3,29.52,NNE,13,2.0,18.0,92,0.00,,,0.06,meteohub,2014-02-15 21:29:00,
2014-02-15 16:31:00,33.4,31.3,29.52,NNE,23,8.0,18.0,92,0.00,,,0.06,meteohub,2014-02-15 21:31:00,
2014-02-15 16:32:00,33.4,31.3,29.52,NW,323,9.0,18.0,92,0.00,,,0.06,meteohub,2014-02-15 21:32:00,
2014-02-15 16:33:00,33.4,31.3,29.52,NW,313,3.0,18.0,92,0.00,,,0.06,meteohub,2014-02-15 21:33:00,
2014-02-15 16:34:00,33.3,31.5,29.52,North,5,5.0,18.0,93,0.00,,,0.06,meteohub,2014-02-15 21:34:00,
2014-02-15 16:37:00,33.3,31.5,29.52,NE,51,5.0,16.0,93,0.00,,,0.06,meteohub,2014-02-15 21:37:00,
2014-02-15 16:38:00,33.3,31.5,29.52,NNE,22,9.0,16.0,93,0.00,,,0.06,meteohub,2014-02-15 21:38:00,
2014-02-15 16:40:00,33.3,31.5,29.52,NE,43,9.0,16.0,93,0.00,,,0.06,meteohub,2014-02-15 21:40:00,
2014-02-15 16:42:00,33.3,31.5,29.52,North,5,11.0,16.0,93,0.00,,,0.06,meteohub,2014-02-15 21:42:00,
2014-02-15 16:43:00,33.3,31.5,29.52,West,277,4.0,16.0,93,0.00,,,0.06,meteohub,2014-02-15 21:43:00,
2014-02-15 16:44:00,33.3,31.5,29.52,NNE,27,6.0,16.0,93,0.00,,,0.06,meteohub,2014-02-15 21:44:00,
2014-02-15 16:45:00,33.3,31.5,29.52,West,270,3.0,16.0,93,0.00,,,0.06,meteohub,2014-02-15 21:45:00,
2014-02-15 16:47:00,33.3,31.5,29.53,WNW,286,2.0,16.0,93,0.00,,,0.06,meteohub,2014-02-15 21:47:00,
2014-02-15 16:48:00,33.4,31.6,29.53,North,10,4.0,16.0,93,0.00,,,0.06,meteohub,2014-02-15 21:48:00,
2014-02-15 16:49:00,33.4,31.6,29.53,SW,234,1.0,16.0,93,0.00,,,0.06,meteohub,2014-02-15 21:49:00,
2014-02-15 16:50:00,33.4,31.6,29.53,NNE,26,3.0,15.0,93,0.00,,,0.06,meteohub,2014-02-15 21:50:00,
2014-02-15 16:52:00,33.4,31.6,29.53,NW,305,2.0,15.0,93,0.00,,,0.06,meteohub,2014-02-15 21:52:00,
2014-02-15 16:53:00,33.4,31.6,29.53,South,188,2.0,15.0,93,0.00,,,0.06,meteohub,2014-02-15 21:53:00,
2014-02-15 16:54:00,33.3,31.5,29.53,NNW,342,3.0,15.0,93,0.00,,,0.06,meteohub,2014-02-15 21:54:00,
2014-02-15 16:55:00,33.3,31.5,29.53,SE,144,4.0,15.0,93,0.00,,,0.06,meteohub,2014-02-15 21:55:00,
2014-02-15 16:58:00,33.3,31.5,29.53,West,273,6.0,15.0,93,0.00,,,0.06,meteohub,2014-02-15 21:58:00,
2014-02-15 16:59:00,33.3,31.5,29.53,West,275,2.0,15.0,93,0.00,,,0.06,meteohub,2014-02-15 21:59:00,
2014-02-15 17:00:00,33.3,31.5,29.53,SW,217,3.0,15.0,93,0.00,,,0.06,meteohub,2014-02-15 22:00:00,
2014-02-15 17:01:00,33.3,31.5,29.53,WNW,302,3.0,12.0,93,0.00,,,0.06,meteohub,2014-02-15 22:01:00,
2014-02-15 17:03:00,33.3,31.5,29.53,West,276,2.0,12.0,93,0.00,,,0.06,meteohub,2014-02-15 22:03:00,
2014-02-15 17:04:00,33.3,31.5,29.53,WSW,239,2.0,12.0,93,0.00,,,0.06,meteohub,2014-02-15 22:04:00,
2014-02-15 17:05:00,33.3,31.5,29.53,WNW,300,2.0,12.0,93,0.00,,,0.06,meteohub,2014-02-15 22:05:00,
2014-02-15 17:07:00,33.3,31.5,29.53,North,0,6.0,12.0,93,0.00,,,0.06,meteohub,2014-02-15 22:07:00,
2014-02-15 17:09:00,33.3,31.5,29.53,NNW,340,6.0,12.0,93,0.00,,,0.06,meteohub,2014-02-15 22:09:00,
2014-02-15 17:10:00,33.3,31.5,29.53,NE,38,9.0,11.0,93,0.00,,,0.06,meteohub,2014-02-15 22:10:00,
2014-02-15 17:11:00,33.3,31.5,29.53,WNW,291,5.0,11.0,93,0.00,,,0.06,meteohub,2014-02-15 22:11:00,
2014-02-15 17:12:00,33.1,31.3,29.54,NNW,339,5.0,11.0,93,0.00,,,0.06,meteohub,2014-02-15 22:12:00,
2014-02-15 17:13:00,33.1,31.3,29.54,WSW,242,9.0,11.0,93,0.00,,,0.06,meteohub,2014-02-15 22:13:00,
2014-02-15 17:14:00,33.1,31.3,29.53,West,279,10.0,11.0,93,0.00,,,0.06,meteohub,2014-02-15 22:14:00,
2014-02-15 17:15:00,33.1,31.3,29.53,NNW,344,2.0,11.0,93,0.00,,,0.06,meteohub,2014-02-15 22:15:00,
2014-02-15 17:16:00,33.1,31.3,29.54,WSW,258,2.0,10.0,93,0.00,,,0.06,meteohub,2014-02-15 22:16:00,
2014-02-15 17:17:00,33.1,31.3,29.54,SSW,197,5.0,10.0,93,0.00,,,0.06,meteohub,2014-02-15 22:17:00,
2014-02-15 17:18:00,33.1,31.3,29.54,West,266,6.0,10.0,93,0.00,,,0.06,meteohub,2014-02-15 22:18:00,
2014-02-15 17:20:00,33.1,31.3,29.54,NNE,23,5.0,10.0,93,0.00,,,0.06,meteohub,2014-02-15 22:20:00,
2014-02-15 17:21:00,33.1,31.3,29.54,WSW,252,7.0,10.0,93,0.00,,,0.06,meteohub,2014-02-15 22:21:00,
2014-02-15 17:22:00,33.1,31.3,29.54,East,86,4.0,10.0,93,0.00,,,0.06,meteohub,2014-02-15 22:22:00,
2014-02-15 17:23:00,33.1,31.3,29.54,WNW,292,3.0,10.0,93,0.00,,,0.06,meteohub,2014-02-15 22:23:00,
2014-02-15 17:24:00,33.1,31.3,29.54,South,184,5.0,10.0,93,0.00,,,0.06,meteohub,2014-02-15 22:24:00,
2014-02-15 17:25:00,32.9,31.1,29.54,SSE,167,5.0,19.0,93,0.01,,,0.07,meteohub,2014-02-15 22:25:00,
2014-02-15 17:26:00,32.9,31.1,29.54,West,260,4.0,19.0,93,0.01,,,0.07,meteohub,2014-02-15 22:26:00,
2014-02-15 17:27:00,32.9,31.1,29.54,NW,325,4.0,19.0,93,0.01,,,0.07,meteohub,2014-02-15 22:27:00,
2014-02-15 17:28:00,32.7,30.9,29.54,WSW,251,5.0,19.0,93,0.01,,,0.07,meteohub,2014-02-15 22:28:00,
2014-02-15 17:29:00,32.7,30.9,29.55,ENE,64,3.0,19.0,93,0.01,,,0.07,meteohub,2014-02-15 22:29:00,
2014-02-15 17:30:00,32.7,30.9,29.55,West,278,3.0,19.0,93,0.01,,,0.07,meteohub,2014-02-15 22:30:00,
2014-02-15 17:31:00,32.7,30.9,29.55,NNE,26,8.0,19.0,93,0.01,,,0.07,meteohub,2014-02-15 22:31:00,
2014-02-15 17:32:00,32.7,30.9,29.55,West,280,7.0,19.0,93,0.01,,,0.07,meteohub,2014-02-15 22:32:00,
2014-02-15 17:33:00,32.5,30.7,29.55,ENE,69,4.0,19.0,93,0.01,,,0.07,meteohub,2014-02-15 22:33:00,
2014-02-15 17:34:00,32.5,30.7,29.55,NW,310,8.0,19.0,93,0.01,,,0.07,meteohub,2014-02-15 22:34:00,
2014-02-15 17:35:00,32.5,30.7,29.55,SSE,158,5.0,19.0,93,0.01,,,0.07,meteohub,2014-02-15 22:35:00,
2014-02-15 17:36:00,32.5,30.7,29.55,WNW,289,1.0,19.0,93,0.01,,,0.07,meteohub,2014-02-15 22:36:00,
2014-02-15 17:38:00,32.5,30.7,29.55,West,280,3.0,19.0,93,0.01,,,0.07,meteohub,2014-02-15 22:38:00,
2014-02-15 17:39:00,32.5,30.7,29.55,WSW,244,3.0,19.0,93,0.01,,,0.07,meteohub,2014-02-15 22:39:00,
2014-02-15 17:41:00,32.5,30.7,29.55,North,5,8.0,13.0,93,0.01,,,0.07,meteohub,2014-02-15 22:41:00,
2014-02-15 17:43:00,32.4,30.6,29.56,WSW,243,1.0,13.0,93,0.01,,,0.07,meteohub,2014-02-15 22:43:00,
2014-02-15 17:44:00,32.4,30.6,29.56,WNW,282,7.0,13.0,93,0.01,,,0.07,meteohub,2014-02-15 22:44:00,
2014-02-15 17:45:00,32.4,30.6,29.56,SSW,210,6.0,13.0,93,0.01,,,0.07,meteohub,2014-02-15 22:45:00,
2014-02-15 17:46:00,32.4,30.6,29.56,WNW,297,5.0,13.0,93,0.01,,,0.07,meteohub,2014-02-15 22:46:00,
2014-02-15 17:47:00,32.4,30.6,29.56,NW,315,6.0,13.0,93,0.01,,,0.07,meteohub,2014-02-15 22:47:00,
2014-02-15 17:49:00,32.4,30.6,29.56,SW,223,4.0,13.0,93,0.01,,,0.07,meteohub,2014-02-15 22:49:00,
2014-02-15 17:50:00,32.4,30.6,29.56,West,271,7.0,12.0,93,0.01,,,0.07,meteohub,2014-02-15 22:50:00,
2014-02-15 17:51:00,32.4,30.6,29.56,West,277,4.0,12.0,93,0.01,,,0.07,meteohub,2014-02-15 22:51:00,
2014-02-15 17:52:00,32.2,30.4,29.56,SW,225,8.0,12.0,93,0.01,,,0.07,meteohub,2014-02-15 22:52:00,
2014-02-15 17:54:00,32.2,30.4,29.56,SW,227,4.0,12.0,93,0.01,,,0.07,meteohub,2014-02-15 22:54:00,
2014-02-15 17:55:00,32.2,30.4,29.56,SSW,196,4.0,12.0,93,0.01,,,0.07,meteohub,2014-02-15 22:55:00,
2014-02-15 17:56:00,32.2,30.4,29.56,WNW,293,2.0,12.0,93,0.01,,,0.07,meteohub,2014-02-15 22:56:00,
2014-02-15 17:57:00,32.2,30.4,29.56,WNW,288,2.0,12.0,93,0.01,,,0.07,meteohub,2014-02-15 22:57:00,
2014-02-15 17:58:00,32.2,30.4,29.56,South,180,3.0,12.0,93,0.01,,,0.07,meteohub,2014-02-15 22:58:00,
2014-02-15 18:00:00,32.2,30.4,29.57,WSW,254,2.0,12.0,93,0.01,,,0.07,meteohub,2014-02-15 23:00:00,
2014-02-15 18:02:00,32.2,30.4,29.56,WSW,248,3.0,12.0,93,0.01,,,0.07,meteohub,2014-02-15 23:02:00,
2014-02-15 18:03:00,32.2,30.4,29.57,SW,229,1.0,12.0,93,0.01,,,0.07,meteohub,2014-02-15 23:03:00,
2014-02-15 18:05:00,32.2,30.4,29.57,NW,311,5.0,12.0,93,0.01,,,0.07,meteohub,2014-02-15 23:05:00,
2014-02-15 18:06:00,32.2,30.4,29.57,South,188,5.0,12.0,93,0.01,,,0.07,meteohub,2014-02-15 23:06:00,
2014-02-15 18:07:00,32.2,30.4,29.57,SW,234,4.0,12.0,93,0.01,,,0.07,meteohub,2014-02-15 23:07:00,
2014-02-15 18:08:00,32.2,30.4,29.57,NE,36,3.0,12.0,93,0.01,,,0.07,meteohub,2014-02-15 23:08:00,
2014-02-15 18:09:00,32.2,30.4,29.57,SW,235,2.0,12.0,93,0.01,,,0.07,meteohub,2014-02-15 23:09:00,
2014-02-15 18:10:00,32.2,30.4,29.57,SSW,211,6.0,12.0,93,0.01,,,0.07,meteohub,2014-02-15 23:10:00,
2014-02-15 18:11:00,32.2,30.4,29.57,SE,128,2.0,12.0,93,0.01,,,0.07,meteohub,2014-02-15 23:11:00,
2014-02-15 18:12:00,32.2,30.4,29.57,North,5,3.0,12.0,93,0.01,,,0.07,meteohub,2014-02-15 23:12:00,
2014-02-15 18:13:00,32.2,30.4,29.57,West,267,4.0,12.0,93,0.01,,,0.07,meteohub,2014-02-15 23:13:00,
2014-02-15 18:14:00,32.2,30.4,29.57,North,350,8.0,12.0,93,0.01,,,0.07,meteohub,2014-02-15 23:14:00,
2014-02-15 18:15:00,32.2,30.4,29.57,NNW,336,3.0,12.0,93,0.01,,,0.07,meteohub,2014-02-15 23:15:00,
2014-02-15 18:16:00,32.2,30.6,29.57,North,355,4.0,12.0,94,0.01,,,0.07,meteohub,2014-02-15 23:16:00,
2014-02-15 18:17:00,32.2,30.6,29.57,WSW,242,4.0,12.0,94,0.01,,,0.07,meteohub,2014-02-15 23:17:00,
2014-02-15 18:19:00,32.2,30.6,29.58,West,273,3.0,12.0,94,0.01,,,0.07,meteohub,2014-02-15 23:19:00,
2014-02-15 18:20:00,32.2,30.6,29.58,West,261,3.0,12.0,94,0.01,,,0.07,meteohub,2014-02-15 23:20:00,
2014-02-15 18:21:00,32.2,30.6,29.58,SSE,151,5.0,12.0,94,0.01,,,0.07,meteohub,2014-02-15 23:21:00,
2014-02-15 18:22:00,32.4,30.7,29.58,South,184,3.0,12.0,94,0.01,,,0.07,meteohub,2014-02-15 23:22:00,
2014-02-15 18:25:00,32.4,30.7,29.58,South,189,3.0,14.0,94,0.00,,,0.07,meteohub,2014-02-15 23:25:00,
2014-02-15 18:26:00,32.4,30.7,29.58,WSW,238,10.0,14.0,94,0.00,,,0.07,meteohub,2014-02-15 23:26:00,
2014-02-15 18:27:00,32.4,30.7,29.58,North,5,5.0,14.0,94,0.00,,,0.07,meteohub,2014-02-15 23:27:00,
2014-02-15 18:28:00,32.4,30.7,29.58,SW,217,4.0,14.0,94,0.00,,,0.07,meteohub,2014-02-15 23:28:00,
2014-02-15 18:30:00,32.4,30.7,29.58,SW,229,2.0,14.0,94,0.00,,,0.07,meteohub,2014-02-15 23:30:00,
2014-02-15 18:31:00,32.4,30.7,29.58,NNE,33,5.0,14.0,94,0.00,,,0.07,meteohub,2014-02-15 23:31:00,
2014-02-15 18:33:00,32.4,30.7,29.59,NW,326,4.0,14.0,94,0.00,,,0.07,meteohub,2014-02-15 23:33:00,
2014-02-15 18:35:00,32.4,30.7,29.59,NW,312,4.0,14.0,94,0.00,,,0.07,meteohub,2014-02-15 23:35:00,
2014-02-15 18:36:00,32.4,30.7,29.59,SW,234,5.0,14.0,94,0.00,,,0.07,meteohub,2014-02-15 23:36:00,
2014-02-15 18:38:00,32.4,30.7,29.59,ENE,65,5.0,14.0,94,0.00,,,0.07,meteohub,2014-02-15 23:38:00,
2014-02-15 18:39:00,32.4,30.7,29.59,NW,311,8.0,14.0,94,0.00,,,0.07,meteohub,2014-02-15 23:39:00,
2014-02-15 18:40:00,32.4,30.7,29.59,West,268,10.0,13.0,94,0.00,,,0.07,meteohub,2014-02-15 23:40:00,
2014-02-15 18:42:00,32.4,30.7,29.59,SSW,204,3.0,13.0,94,0.00,,,0.07,meteohub,2014-02-15 23:42:00,
2014-02-15 18:43:00,32.4,30.7,29.59,West,273,9.0,13.0,94,0.00,,,0.07,meteohub,2014-02-15 23:43:00,
2014-02-15 18:44:00,32.4,30.7,29.59,East,80,4.0,13.0,94,0.00,,,0.07,meteohub,2014-02-15 23:44:00,
2014-02-15 18:46:00,32.4,30.7,29.59,West,269,4.0,20.0,94,0.00,,,0.07,meteohub,2014-02-15 23:46:00,
2014-02-15 18:47:00,32.4,30.7,29.59,WSW,237,11.0,20.0,94,0.00,,,0.07,meteohub,2014-02-15 23:47:00,
2014-02-15 18:49:00,32.4,30.7,29.59,SW,227,6.0,20.0,94,0.00,,,0.07,meteohub,2014-02-15 23:49:00,
2014-02-15 18:51:00,32.4,30.7,29.59,SW,234,1.0,20.0,94,0.00,,,0.07,meteohub,2014-02-15 23:51:00,
2014-02-15 18:52:00,32.4,30.7,29.59,WSW,254,5.0,20.0,94,0.00,,,0.07,meteohub,2014-02-15 23:52:00,
2014-02-15 18:53:00,32.4,30.7,29.60,North,355,3.0,20.0,94,0.00,,,0.07,meteohub,2014-02-15 23:53:00,
2014-02-15 18:54:00,32.4,30.7,29.60,NE,35,3.0,20.0,94,0.00,,,0.07,meteohub,2014-02-15 23:54:00,
2014-02-15 18:55:00,32.4,30.7,29.60,SSW,211,4.0,20.0,94,0.00,,,0.07,meteohub,2014-02-15 23:55:00,
2014-02-15 18:56:00,32.4,30.7,29.60,WSW,238,8.0,13.0,94,0.00,,,0.07,meteohub,2014-02-15 23:56:00,
2014-02-15 18:58:00,32.4,30.7,29.60,South,173,3.0,13.0,94,0.00,,,0.07,meteohub,2014-02-15 23:58:00,
2014-02-15 18:59:00,32.4,30.7,29.60,West,273,6.0,13.0,94,0.00,,,0.07,meteohub,2014-02-15 23:59:00,
2014-02-15 19:00:00,32.4,30.7,29.60,SSE,152,8.0,13.0,94,0.00,,,0.07,meteohub,2014-02-16 00:00:00,
2014-02-15 19:01:00,32.4,30.7,29.60,South,180,3.0,13.0,94,0.00,,,0.07,meteohub,2014-02-16 00:01:00,
2014-02-15 19:03:00,32.4,30.7,29.60,WSW,243,3.0,13.0,94,0.00,,,0.07,meteohub,2014-02-16 00:03:00,
2014-02-15 19:04:00,32.4,30.7,29.60,South,185,4.0,13.0,94,0.00,,,0.07,meteohub,2014-02-16 00:04:00,
2014-02-15 19:05:00,32.4,30.7,29.60,WSW,241,4.0,13.0,94,0.00,,,0.07,meteohub,2014-02-16 00:05:00,
2014-02-15 19:06:00,32.4,30.7,29.60,SW,230,2.0,13.0,94,0.00,,,0.07,meteohub,2014-02-16 00:06:00,
2014-02-15 19:08:00,32.4,30.7,29.60,North,0,4.0,13.0,94,0.00,,,0.07,meteohub,2014-02-16 00:08:00,
2014-02-15 19:09:00,32.4,30.7,29.60,SW,221,4.0,13.0,94,0.00,,,0.07,meteohub,2014-02-16 00:09:00,
2014-02-15 19:11:00,32.4,30.7,29.60,NW,306,5.0,13.0,94,0.00,,,0.07,meteohub,2014-02-16 00:11:00,
2014-02-15 19:14:00,32.4,30.7,29.60,NNW,341,4.0,13.0,94,0.00,,,0.07,meteohub,2014-02-16 00:14:00,
2014-02-15 19:15:00,32.4,30.7,29.60,WSW,244,2.0,13.0,94,0.00,,,0.07,meteohub,2014-02-16 00:15:00,
2014-02-15 19:16:00,32.4,30.7,29.60,WNW,302,7.0,14.0,94,0.00,,,0.07,meteohub,2014-02-16 00:16:00,
2014-02-15 19:17:00,32.4,30.7,29.60,WSW,242,2.0,14.0,94,0.00,,,0.07,meteohub,2014-02-16 00:17:00,
2014-02-15 19:19:00,32.4,30.7,29.60,WNW,285,9.0,14.0,94,0.00,,,0.07,meteohub,2014-02-16 00:19:00,
2014-02-15 19:20:00,32.4,30.7,29.60,West,261,2.0,14.0,94,0.00,,,0.07,meteohub,2014-02-16 00:20:00,
2014-02-15 19:21:00,32.4,30.7,29.60,West,279,7.0,14.0,94,0.00,,,0.07,meteohub,2014-02-16 00:21:00,
2014-02-15 19:22:00,32.4,30.7,29.61,WNW,298,10.0,14.0,94,0.00,,,0.07,meteohub,2014-02-16 00:22:00,
2014-02-15 19:24:00,32.4,30.7,29.61,NE,38,1.0,14.0,94,0.00,,,0.07,meteohub,2014-02-16 00:24:00,
2014-02-15 19:25:00,32.4,30.7,29.61,West,260,6.0,14.0,94,0.00,,,0.07,meteohub,2014-02-16 00:25:00,
2014-02-15 19:27:00,32.5,30.9,29.61,NE,51,3.0,14.0,94,0.00,,,0.07,meteohub,2014-02-16 00:27:00,
2014-02-15 19:28:00,32.5,30.9,29.61,NW,325,5.0,14.0,94,0.00,,,0.07,meteohub,2014-02-16 00:28:00,
2014-02-15 19:29:00,32.5,30.9,29.61,NW,314,9.0,14.0,94,0.00,,,0.07,meteohub,2014-02-16 00:29:00,
2014-02-15 19:30:00,32.5,30.9,29.61,WNW,300,5.0,14.0,94,0.00,,,0.07,meteohub,2014-02-16 00:30:00,
2014-02-15 19:32:00,32.5,30.9,29.61,WNW,290,5.0,14.0,94,0.00,,,0.07,meteohub,2014-02-16 00:32:00,
2014-02-15 19:33:00,32.5,30.9,29.61,NW,317,8.0,14.0,94,0.00,,,0.07,meteohub,2014-02-16 00:33:00,
2014-02-15 19:35:00,32.5,30.9,29.61,SSW,197,5.0,14.0,94,0.00,,,0.07,meteohub,2014-02-16 00:35:00,
2014-02-15 19:36:00,32.5,30.9,29.61,WNW,302,4.0,16.0,94,0.00,,,0.07,meteohub,2014-02-16 00:36:00,
2014-02-15 19:37:00,32.5,30.9,29.61,NW,313,8.0,16.0,94,0.00,,,0.07,meteohub,2014-02-16 00:37:00,
2014-02-15 19:38:00,32.5,30.9,29.61,ESE,121,2.0,16.0,94,0.00,,,0.07,meteohub,2014-02-16 00:38:00,
2014-02-15 19:40:00,32.5,30.9,29.62,NNE,19,7.0,16.0,94,0.00,,,0.07,meteohub,2014-02-16 00:40:00,
2014-02-15 19:41:00,32.5,30.9,29.61,WNW,295,5.0,16.0,94,0.00,,,0.07,meteohub,2014-02-16 00:41:00,
2014-02-15 19:42:00,32.5,30.9,29.61,WNW,283,3.0,16.0,94,0.00,,,0.07,meteohub,2014-02-16 00:42:00,
2014-02-15 19:43:00,32.5,30.9,29.61,WNW,290,13.0,16.0,94,0.00,,,0.07,meteohub,2014-02-16 00:43:00,
2014-02-15 19:45:00,32.5,30.9,29.61,NW,311,8.0,20.0,94,0.00,,,0.07,meteohub,2014-02-16 00:45:00,
2014-02-15 19:46:00,32.5,30.9,29.61,WNW,294,8.0,20.0,94,0.00,,,0.07,meteohub,2014-02-16 00:46:00,
2014-02-15 19:47:00,32.5,30.9,29.61,NW,321,3.0,20.0,94,0.00,,,0.07,meteohub,2014-02-16 00:47:00,
2014-02-15 19:48:00,32.7,31.1,29.61,West,269,3.0,20.0,94,0.00,,,0.07,meteohub,2014-02-16 00:48:00,
2014-02-15 19:49:00,32.5,30.9,29.61,WNW,302,9.0,20.0,94,0.00,,,0.07,meteohub,2014-02-16 00:49:00,
2014-02-15 19:51:00,32.7,31.1,29.61,SE,135,5.0,20.0,94,0.00,,,0.07,meteohub,2014-02-16 00:51:00,
2014-02-15 19:52:00,32.7,31.1,29.61,West,272,7.0,20.0,94,0.00,,,0.07,meteohub,2014-02-16 00:52:00,
2014-02-15 19:53:00,32.7,31.1,29.61,WNW,300,5.0,20.0,94,0.00,,,0.07,meteohub,2014-02-16 00:53:00,
2014-02-15 19:54:00,32.7,31.1,29.61,WNW,301,9.0,20.0,94,0.00,,,0.07,meteohub,2014-02-16 00:54:00,
2014-02-15 19:56:00,32.7,31.1,29.61,West,270,7.0,20.0,94,0.00,,,0.07,meteohub,2014-02-16 00:56:00,
2014-02-15 19:57:00,32.7,31.1,29.62,WNW,282,8.0,20.0,94,0.00,,,0.07,meteohub,2014-02-16 00:57:00,
2014-02-15 19:58:00,32.7,31.1,29.62,SW,217,2.0,20.0,94,0.00,,,0.07,meteohub,2014-02-16 00:58:00,
2014-02-15 19:59:00,32.7,31.1,29.62,WSW,253,10.0,20.0,94,0.00,,,0.07,meteohub,2014-02-16 00:59:00,
2014-02-15 20:00:00,32.7,30.9,29.62,WNW,296,5.0,19.0,93,0.00,,,0.07,meteohub,2014-02-16 01:00:00,
2014-02-15 20:01:00,32.7,30.9,29.62,WNW,284,3.0,19.0,93,0.00,,,0.07,meteohub,2014-02-16 01:01:00,
2014-02-15 20:03:00,32.7,30.9,29.62,West,274,6.0,19.0,93,0.00,,,0.07,meteohub,2014-02-16 01:03:00,
2014-02-15 20:04:00,32.7,30.9,29.62,West,275,7.0,19.0,93,0.00,,,0.07,meteohub,2014-02-16 01:04:00,
2014-02-15 20:05:00,32.7,30.9,29.62,WSW,251,9.0,19.0,93,0.00,,,0.07,meteohub,2014-02-16 01:05:00,
2014-02-15 20:06:00,32.7,30.9,29.62,WNW,302,7.0,17.0,93,0.00,,,0.07,meteohub,2014-02-16 01:06:00,
2014-02-15 20:08:00,32.7,30.9,29.62,NNE,31,10.0,17.0,93,0.00,,,0.07,meteohub,2014-02-16 01:08:00,
2014-02-15 20:10:00,32.7,30.9,29.62,East,93,10.0,17.0,93,0.00,,,0.07,meteohub,2014-02-16 01:10:00,
2014-02-15 20:11:00,32.7,30.9,29.62,WNW,288,3.0,17.0,93,0.00,,,0.07,meteohub,2014-02-16 01:11:00,
2014-02-15 20:13:00,32.7,30.9,29.62,West,268,6.0,17.0,93,0.00,,,0.07,meteohub,2014-02-16 01:13:00,
2014-02-15 20:16:00,32.7,30.9,29.62,West,267,6.0,17.0,93,0.00,,,0.07,meteohub,2014-02-16 01:16:00,
2014-02-15 20:17:00,32.7,30.9,29.63,West,265,6.0,17.0,93,0.00,,,0.07,meteohub,2014-02-16 01:17:00,
2014-02-15 20:18:00,32.7,30.9,29.63,SSW,202,3.0,17.0,93,0.00,,,0.07,meteohub,2014-02-16 01:18:00,
2014-02-15 20:21:00,32.7,30.9,29.63,WNW,299,10.0,17.0,93,0.00,,,0.07,meteohub,2014-02-16 01:21:00,
2014-02-15 20:22:00,32.7,30.9,29.63,WSW,254,5.0,17.0,93,0.00,,,0.07,meteohub,2014-02-16 01:22:00,
2014-02-15 20:23:00,32.7,30.9,29.64,NNW,335,6.0,17.0,93,0.00,,,0.07,meteohub,2014-02-16 01:23:00,
2014-02-15 20:27:00,32.7,30.9,29.64,NW,321,9.0,17.0,93,0.00,,,0.07,meteohub,2014-02-16 01:27:00,
2014-02-15 20:28:00,32.7,30.9,29.64,West,269,6.0,17.0,93,0.00,,,0.07,meteohub,2014-02-16 01:28:00,
2014-02-15 20:32:00,32.7,30.7,29.64,NE,52,7.0,17.0,92,0.00,,,0.07,meteohub,2014-02-16 01:32:00,
2014-02-15 20:33:00,32.7,30.7,29.64,NW,307,10.0,17.0,92,0.00,,,0.07,meteohub,2014-02-16 01:33:00,
2014-02-15 20:34:00,32.7,30.7,29.64,NW,313,11.0,17.0,92,0.00,,,0.07,meteohub,2014-02-16 01:34:00,
2014-02-15 20:37:00,32.7,30.7,29.64,ESE,114,4.0,17.0,92,0.00,,,0.07,meteohub,2014-02-16 01:37:00,
2014-02-15 20:38:00,32.7,30.7,29.64,West,279,9.0,17.0,92,0.00,,,0.07,meteohub,2014-02-16 01:38:00,
2014-02-15 20:39:00,32.7,30.7,29.64,WNW,288,10.0,17.0,92,0.00,,,0.07,meteohub,2014-02-16 01:39:00,
2014-02-15 20:40:00,32.7,30.7,29.64,West,261,7.0,17.0,92,0.00,,,0.07,meteohub,2014-02-16 01:40:00,
2014-02-15 20:42:00,32.7,30.7,29.64,West,259,7.0,18.0,92,0.00,,,0.07,meteohub,2014-02-16 01:42:00,
2014-02-15 20:43:00,32.7,30.7,29.65,NW,310,7.0,18.0,92,0.00,,,0.07,meteohub,2014-02-16 01:43:00,
2014-02-15 20:44:00,32.7,30.7,29.65,NNW,329,8.0,18.0,92,0.00,,,0.07,meteohub,2014-02-16 01:44:00,
2014-02-15 20:45:00,32.7,30.7,29.65,NW,323,15.0,18.0,92,0.00,,,0.07,meteohub,2014-02-16 01:45:00,
2014-02-15 20:47:00,32.7,30.4,29.65,WNW,284,8.0,18.0,91,0.00,,,0.07,meteohub,2014-02-16 01:47:00,
2014-02-15 20:49:00,32.7,30.4,29.65,West,279,4.0,18.0,91,0.00,,,0.07,meteohub,2014-02-16 01:49:00,
2014-02-15 20:50:00,32.7,30.4,29.65,WNW,288,2.0,18.0,91,0.00,,,0.07,meteohub,2014-02-16 01:50:00,
2014-02-15 20:51:00,32.7,30.4,29.65,WNW,296,4.0,18.0,91,0.00,,,0.07,meteohub,2014-02-16 01:51:00,
2014-02-15 20:52:00,32.7,30.4,29.65,West,279,11.0,18.0,91,0.00,,,0.07,meteohub,2014-02-16 01:52:00,
2014-02-15 20:53:00,32.7,30.4,29.65,SSE,150,8.0,18.0,91,0.00,,,0.07,meteohub,2014-02-16 01:53:00,
2014-02-15 20:55:00,32.7,30.4,29.65,NW,310,2.0,17.0,91,0.00,,,0.07,meteohub,2014-02-16 01:55:00,
2014-02-15 20:56:00,32.7,30.4,29.65,South,181,5.0,17.0,91,0.00,,,0.07,meteohub,2014-02-16 01:56:00,
2014-02-15 20:58:00,32.7,30.4,29.65,WSW,237,4.0,17.0,91,0.00,,,0.07,meteohub,2014-02-16 01:58:00,
2014-02-15 21:00:00,32.7,30.4,29.65,WNW,290,10.0,17.0,91,0.00,,,0.07,meteohub,2014-02-16 02:00:00,
2014-02-15 21:01:00,32.7,30.4,29.65,NW,309,9.0,18.0,91,0.00,,,0.07,meteohub,2014-02-16 02:01:00,
2014-02-15 21:03:00,32.7,30.4,29.65,WNW,285,7.0,18.0,91,0.00,,,0.07,meteohub,2014-02-16 02:03:00,
2014-02-15 21:04:00,32.7,30.2,29.65,NW,306,4.0,18.0,90,0.00,,,0.07,meteohub,2014-02-16 02:04:00,
2014-02-15 21:06:00,32.7,30.2,29.65,WNW,293,4.0,18.0,90,0.00,,,0.07,meteohub,2014-02-16 02:06:00,
2014-02-15 21:07:00,32.7,30.2,29.65,West,281,6.0,18.0,90,0.00,,,0.07,meteohub,2014-02-16 02:07:00,
2014-02-15 21:08:00,32.7,30.2,29.65,West,277,4.0,18.0,90,0.00,,,0.07,meteohub,2014-02-16 02:08:00,
2014-02-15 21:09:00,32.7,30.2,29.65,WNW,287,12.0,18.0,90,0.00,,,0.07,meteohub,2014-02-16 02:09:00,
2014-02-15 21:11:00,32.7,30.2,29.66,WSW,258,6.0,18.0,90,0.00,,,0.07,meteohub,2014-02-16 02:11:00,
2014-02-15 21:12:00,32.7,30.2,29.66,WNW,291,10.0,18.0,90,0.00,,,0.07,meteohub,2014-02-16 02:12:00,
2014-02-15 21:14:00,32.7,30.2,29.66,NW,321,3.0,18.0,90,0.00,,,0.07,meteohub,2014-02-16 02:14:00,
2014-02-15 21:15:00,32.7,30.2,29.66,WSW,247,7.0,18.0,90,0.00,,,0.07,meteohub,2014-02-16 02:15:00,
2014-02-15 21:16:00,32.5,30.0,29.66,WNW,286,8.0,16.0,90,0.00,,,0.07,meteohub,2014-02-16 02:16:00,
2014-02-15 21:17:00,32.5,30.0,29.66,West,266,7.0,16.0,90,0.00,,,0.07,meteohub,2014-02-16 02:17:00,
2014-02-15 21:19:00,32.5,30.0,29.66,WSW,254,8.0,16.0,90,0.00,,,0.07,meteohub,2014-02-16 02:19:00,
2014-02-15 21:20:00,32.5,30.0,29.66,West,261,8.0,16.0,90,0.00,,,0.07,meteohub,2014-02-16 02:20:00,
2014-02-15 21:22:00,32.5,30.0,29.66,South,184,1.0,16.0,90,0.00,,,0.07,meteohub,2014-02-16 02:22:00,
2014-02-15 21:24:00,32.5,30.0,29.66,WNW,291,7.0,16.0,90,0.00,,,0.07,meteohub,2014-02-16 02:24:00,
2014-02-15 21:26:00,32.5,29.7,29.66,West,281,6.0,17.0,89,0.00,,,0.07,meteohub,2014-02-16 02:26:00,
2014-02-15 21:27:00,32.5,29.7,29.66,WNW,282,4.0,17.0,89,0.00,,,0.07,meteohub,2014-02-16 02:27:00,
2014-02-15 21:30:00,32.5,29.7,29.67,WNW,297,5.0,17.0,89,0.00,,,0.07,meteohub,2014-02-16 02:30:00,
2014-02-15 21:31:00,32.5,29.7,29.67,WNW,285,2.0,17.0,89,0.00,,,0.07,meteohub,2014-02-16 02:31:00,
2014-02-15 21:33:00,32.5,29.7,29.67,WNW,296,8.0,17.0,89,0.00,,,0.07,meteohub,2014-02-16 02:33:00,
2014-02-15 21:34:00,32.5,29.3,29.67,West,280,11.0,17.0,88,0.00,,,0.07,meteohub,2014-02-16 02:34:00,
2014-02-15 21:35:00,32.5,29.3,29.68,WNW,291,7.0,17.0,88,0.00,,,0.07,meteohub,2014-02-16 02:35:00,
2014-02-15 21:36:00,32.5,29.3,29.68,NW,313,5.0,17.0,88,0.00,,,0.07,meteohub,2014-02-16 02:36:00,
2014-02-15 21:38:00,32.5,29.1,29.68,WSW,252,4.0,17.0,87,0.00,,,0.07,meteohub,2014-02-16 02:38:00,
2014-02-15 21:39:00,32.5,29.1,29.68,WNW,300,5.0,17.0,87,0.00,,,0.07,meteohub,2014-02-16 02:39:00,
2014-02-15 21:40:00,32.5,29.1,29.68,WNW,284,10.0,14.0,87,0.00,,,0.07,meteohub,2014-02-16 02:40:00,
2014-02-15 21:41:00,32.5,29.1,29.68,WNW,292,10.0,14.0,87,0.00,,,0.07,meteohub,2014-02-16 02:41:00,
2014-02-15 21:43:00,32.4,28.9,29.68,West,260,11.0,14.0,87,0.00,,,0.07,meteohub,2014-02-16 02:43:00,
2014-02-15 21:44:00,32.4,28.9,29.68,NNW,333,5.0,14.0,87,0.00,,,0.07,meteohub,2014-02-16 02:44:00,
2014-02-15 21:45:00,32.4,28.9,29.68,WSW,244,4.0,14.0,87,0.00,,,0.07,meteohub,2014-02-16 02:45:00,
2014-02-15 21:46:00,32.4,28.9,29.68,WNW,293,11.0,15.0,87,0.00,,,0.07,meteohub,2014-02-16 02:46:00,
2014-02-15 21:47:00,32.4,28.6,29.68,WNW,290,8.0,15.0,86,0.00,,,0.07,meteohub,2014-02-16 02:47:00,
2014-02-15 21:48:00,32.4,28.6,29.68,West,279,4.0,15.0,86,0.00,,,0.07,meteohub,2014-02-16 02:48:00,
2014-02-15 21:50:00,32.4,28.6,29.69,WNW,295,5.0,15.0,86,0.00,,,0.07,meteohub,2014-02-16 02:50:00,
2014-02-15 21:51:00,32.2,28.4,29.69,WNW,286,8.0,15.0,86,0.00,,,0.07,meteohub,2014-02-16 02:51:00,
2014-02-15 21:52:00,32.2,28.4,29.69,WNW,300,4.0,15.0,86,0.00,,,0.07,meteohub,2014-02-16 02:52:00,
2014-02-15 21:53:00,32.2,28.4,29.69,WNW,286,4.0,15.0,86,0.00,,,0.07,meteohub,2014-02-16 02:53:00,
2014-02-15 21:55:00,32.2,28.4,29.69,NNW,339,9.0,15.0,86,0.00,,,0.07,meteohub,2014-02-16 02:55:00,
2014-02-15 21:56:00,32.0,28.2,29.69,West,264,6.0,15.0,86,0.00,,,0.07,meteohub,2014-02-16 02:56:00,
2014-02-15 21:58:00,31.8,28.0,29.69,West,277,9.0,15.0,86,0.00,,,0.07,meteohub,2014-02-16 02:58:00,
2014-02-15 21:59:00,31.8,28.0,29.70,West,278,12.0,15.0,86,0.00,,,0.07,meteohub,2014-02-16 02:59:00,
2014-02-15 22:00:00,31.8,28.0,29.69,WNW,286,13.0,18.0,86,0.00,,,0.07,meteohub,2014-02-16 03:00:00,
2014-02-15 22:01:00,31.6,27.9,29.70,NW,307,20.0,20.0,86,0.00,,,0.07,meteohub,2014-02-16 03:01:00,
2014-02-15 22:03:00,31.6,27.7,29.70,WNW,294,5.0,18.0,85,0.00,,,0.07,meteohub,2014-02-16 03:03:00,
2014-02-15 22:04:00,31.6,27.7,29.70,West,264,10.0,18.0,85,0.00,,,0.07,meteohub,2014-02-16 03:04:00,
2014-02-15 22:06:00,31.6,27.7,29.70,WNW,295,10.0,20.0,85,0.00,,,0.07,meteohub,2014-02-16 03:06:00,
2014-02-15 22:07:00,31.6,27.7,29.70,WNW,288,8.0,20.0,85,0.00,,,0.07,meteohub,2014-02-16 03:07:00,
2014-02-15 22:08:00,31.5,27.1,29.70,WNW,290,7.0,20.0,84,0.00,,,0.07,meteohub,2014-02-16 03:08:00,
2014-02-15 22:09:00,31.5,27.1,29.70,WNW,302,10.0,20.0,84,0.00,,,0.07,meteohub,2014-02-16 03:09:00,
2014-02-15 22:11:00,31.5,27.1,29.71,WNW,293,13.0,20.0,84,0.00,,,0.07,meteohub,2014-02-16 03:11:00,
2014-02-15 22:12:00,31.5,27.0,29.71,WNW,291,9.0,20.0,83,0.00,,,0.07,meteohub,2014-02-16 03:12:00,
2014-02-15 22:14:00,31.5,27.0,29.71,WNW,288,17.0,20.0,83,0.00,,,0.07,meteohub,2014-02-16 03:14:00,
2014-02-15 22:16:00,31.3,26.4,29.71,WNW,296,13.0,20.0,82,0.00,,,0.07,meteohub,2014-02-16 03:16:00,
2014-02-15 22:17:00,31.3,26.4,29.71,SW,217,8.0,20.0,82,0.00,,,0.07,meteohub,2014-02-16 03:17:00,
2014-02-15 22:18:00,31.3,26.4,29.71,WNW,290,9.0,20.0,82,0.00,,,0.07,meteohub,2014-02-16 03:18:00,
2014-02-15 22:19:00,31.3,26.4,29.71,West,281,13.0,20.0,82,0.00,,,0.07,meteohub,2014-02-16 03:19:00,
2014-02-15 22:20:00,31.1,26.2,29.71,WNW,290,7.0,20.0,82,0.00,,,0.07,meteohub,2014-02-16 03:20:00,
2014-02-15 22:21:00,31.1,25.9,29.71,West,265,9.0,18.0,81,0.00,,,0.07,meteohub,2014-02-16 03:21:00,
2014-02-15 22:23:00,30.9,25.7,29.71,West,263,4.0,18.0,81,0.00,,,0.07,meteohub,2014-02-16 03:23:00,
2014-02-15 22:24:00,30.9,25.7,29.71,WNW,292,16.0,18.0,81,0.00,,,0.07,meteohub,2014-02-16 03:24:00,
2014-02-15 22:25:00,30.9,25.7,29.71,NW,306,9.0,18.0,81,0.00,,,0.07,meteohub,2014-02-16 03:25:00,
2014-02-15 22:26:00,30.7,25.3,29.72,WNW,296,4.0,17.0,80,0.00,,,0.07,meteohub,2014-02-16 03:26:00,
2014-02-15 22:27:00,30.7,25.3,29.72,WNW,282,9.0,17.0,80,0.00,,,0.07,meteohub,2014-02-16 03:27:00,
2014-02-15 22:29:00,30.7,25.0,29.72,WSW,238,9.0,17.0,79,0.00,,,0.07,meteohub,2014-02-16 03:29:00,
2014-02-15 22:30:00,30.7,25.0,29.72,WNW,294,10.0,19.0,79,0.00,,,0.07,meteohub,2014-02-16 03:30:00,
2014-02-15 22:31:00,30.6,25.2,29.72,WNW,292,13.0,19.0,80,0.00,,,0.07,meteohub,2014-02-16 03:31:00,
2014-02-15 22:33:00,30.6,24.8,29.72,West,273,7.0,19.0,79,0.00,,,0.07,meteohub,2014-02-16 03:33:00,
2014-02-15 22:34:00,30.6,24.8,29.72,WNW,285,10.0,19.0,79,0.00,,,0.07,meteohub,2014-02-16 03:34:00,
2014-02-15 22:35:00,30.6,24.4,29.73,WNW,290,17.0,19.0,78,0.00,,,0.07,meteohub,2014-02-16 03:35:00,
2014-02-15 22:37:00,30.6,24.4,29.72,NW,311,9.0,19.0,78,0.00,,,0.07,meteohub,2014-02-16 03:37:00,
2014-02-15 22:38:00,30.4,24.3,29.73,WNW,296,14.0,19.0,78,0.00,,,0.07,meteohub,2014-02-16 03:38:00,
2014-02-15 22:39:00,30.4,24.1,29.73,NNW,327,10.0,19.0,77,0.00,,,0.07,meteohub,2014-02-16 03:39:00,
2014-02-15 22:41:00,30.4,24.1,29.73,WNW,302,5.0,24.0,77,0.00,,,0.07,meteohub,2014-02-16 03:41:00,
2014-02-15 22:42:00,30.4,24.1,29.73,West,281,11.0,24.0,77,0.00,,,0.07,meteohub,2014-02-16 03:42:00,
2014-02-15 22:43:00,30.4,24.1,29.73,WNW,294,9.0,24.0,77,0.00,,,0.07,meteohub,2014-02-16 03:43:00,
2014-02-15 22:44:00,30.2,23.9,29.73,WNW,289,7.0,24.0,77,0.00,,,0.07,meteohub,2014-02-16 03:44:00,
2014-02-15 22:45:00,30.2,23.9,29.73,WNW,302,11.0,24.0,77,0.00,,,0.07,meteohub,2014-02-16 03:45:00,
2014-02-15 22:47:00,30.0,23.7,29.73,WNW,296,12.0,24.0,77,0.00,,,0.07,meteohub,2014-02-16 03:47:00,
2014-02-15 22:48:00,30.0,23.7,29.74,WNW,294,8.0,24.0,77,0.00,,,0.07,meteohub,2014-02-16 03:48:00,
2014-02-15 22:49:00,30.0,23.7,29.74,WNW,297,19.0,24.0,77,0.00,,,0.07,meteohub,2014-02-16 03:49:00,
2014-02-15 22:50:00,29.8,23.5,29.73,West,280,9.0,24.0,77,0.00,,,0.07,meteohub,2014-02-16 03:50:00,
2014-02-15 22:52:00,29.8,23.5,29.74,WNW,290,9.0,24.0,77,0.00,,,0.07,meteohub,2014-02-16 03:52:00,
2014-02-15 22:54:00,29.8,23.5,29.73,WNW,303,10.0,24.0,77,0.00,,,0.07,meteohub,2014-02-16 03:54:00,
2014-02-15 22:55:00,29.8,23.5,29.73,West,267,9.0,24.0,77,0.00,,,0.07,meteohub,2014-02-16 03:55:00,
2014-02-15 22:56:00,29.7,23.0,29.73,SE,138,10.0,19.0,76,0.00,,,0.07,meteohub,2014-02-16 03:56:00,
2014-02-15 22:58:00,29.7,22.6,29.74,West,275,12.0,19.0,75,0.00,,,0.07,meteohub,2014-02-16 03:58:00,
2014-02-15 22:59:00,29.7,22.6,29.74,WNW,286,11.0,19.0,75,0.00,,,0.07,meteohub,2014-02-16 03:59:00,
2014-02-15 23:00:00,29.7,22.6,29.74,WNW,301,10.0,19.0,75,0.00,,,0.07,meteohub,2014-02-16 04:00:00,
2014-02-15 23:01:00,29.7,22.6,29.74,NW,311,17.0,19.0,75,0.00,,,0.07,meteohub,2014-02-16 04:01:00,
2014-02-15 23:02:00,29.7,22.5,29.74,WNW,284,16.0,19.0,74,0.00,,,0.07,meteohub,2014-02-16 04:02:00,
2014-02-15 23:04:00,29.7,22.5,29.74,WNW,302,5.0,19.0,74,0.00,,,0.07,meteohub,2014-02-16 04:04:00,
2014-02-15 23:05:00,29.7,22.6,29.74,WNW,293,15.0,24.0,75,0.00,,,0.07,meteohub,2014-02-16 04:05:00,
2014-02-15 23:06:00,29.7,22.6,29.74,West,259,8.0,24.0,75,0.00,,,0.07,meteohub,2014-02-16 04:06:00,
2014-02-15 23:07:00,29.5,22.5,29.74,WNW,287,15.0,24.0,75,0.00,,,0.07,meteohub,2014-02-16 04:07:00,
2014-02-15 23:08:00,29.5,22.5,29.75,West,268,11.0,24.0,75,0.00,,,0.07,meteohub,2014-02-16 04:08:00,
2014-02-15 23:09:00,29.5,22.5,29.75,NW,311,12.0,24.0,75,0.00,,,0.07,meteohub,2014-02-16 04:09:00,
2014-02-15 23:11:00,29.5,22.5,29.75,SSW,212,2.0,24.0,75,0.00,,,0.07,meteohub,2014-02-16 04:11:00,
2014-02-15 23:12:00,29.5,22.5,29.75,NW,304,10.0,24.0,75,0.00,,,0.07,meteohub,2014-02-16 04:12:00,
2014-02-15 23:13:00,29.5,22.5,29.75,NW,318,9.0,24.0,75,0.00,,,0.07,meteohub,2014-02-16 04:13:00,
2014-02-15 23:15:00,29.5,22.3,29.75,WNW,302,10.0,24.0,74,0.00,,,0.07,meteohub,2014-02-16 04:15:00,
2014-02-15 23:16:00,29.5,22.3,29.75,WNW,285,8.0,24.0,74,0.00,,,0.07,meteohub,2014-02-16 04:16:00,
2014-02-15 23:17:00,29.5,22.3,29.75,WNW,294,10.0,24.0,74,0.00,,,0.07,meteohub,2014-02-16 04:17:00,
2014-02-15 23:19:00,29.3,22.1,29.75,WNW,290,10.0,24.0,74,0.00,,,0.07,meteohub,2014-02-16 04:19:00,
2014-02-15 23:20:00,29.1,21.9,29.74,NW,306,7.0,19.0,74,0.00,,,0.07,meteohub,2014-02-16 04:20:00,
2014-02-15 23:21:00,29.1,21.9,29.74,NW,306,12.0,19.0,74,0.00,,,0.07,meteohub,2014-02-16 04:21:00,
2014-02-15 23:23:00,29.1,21.9,29.74,WNW,291,11.0,19.0,74,0.00,,,0.07,meteohub,2014-02-16 04:23:00,
2014-02-15 23:24:00,29.1,21.6,29.74,West,273,10.0,19.0,73,0.00,,,0.07,meteohub,2014-02-16 04:24:00,
2014-02-15 23:25:00,29.1,21.6,29.75,North,5,9.0,22.0,73,0.00,,,0.07,meteohub,2014-02-16 04:25:00,
2014-02-15 23:26:00,29.1,21.6,29.75,West,269,6.0,22.0,73,0.00,,,0.07,meteohub,2014-02-16 04:26:00,
2014-02-15 23:28:00,29.1,21.6,29.75,West,274,6.0,22.0,73,0.00,,,0.07,meteohub,2014-02-16 04:28:00,
2014-02-15 23:29:00,29.1,21.6,29.75,West,273,11.0,22.0,73,0.00,,,0.07,meteohub,2014-02-16 04:29:00,
2014-02-15 23:30:00,29.1,21.6,29.75,NW,319,11.0,22.0,73,0.00,,,0.07,meteohub,2014-02-16 04:30:00,
2014-02-15 23:32:00,28.9,21.4,29.75,WNW,289,5.0,22.0,73,0.00,,,0.07,meteohub,2014-02-16 04:32:00,
2014-02-15 23:33:00,28.9,21.4,29.75,WNW,283,18.0,22.0,73,0.00,,,0.07,meteohub,2014-02-16 04:33:00,
2014-02-15 23:34:00,28.9,21.4,29.75,WNW,295,14.0,22.0,73,0.00,,,0.07,meteohub,2014-02-16 04:34:00,
2014-02-15 23:35:00,28.9,21.4,29.75,WNW,288,9.0,22.0,73,0.00,,,0.07,meteohub,2014-02-16 04:35:00,
2014-02-15 23:36:00,28.9,21.7,29.75,WNW,289,5.0,22.0,74,0.00,,,0.07,meteohub,2014-02-16 04:36:00,
2014-02-15 23:37:00,28.9,21.7,29.75,West,270,8.0,22.0,74,0.00,,,0.07,meteohub,2014-02-16 04:37:00,
2014-02-15 23:38:00,28.9,21.7,29.75,NNW,337,8.0,22.0,74,0.00,,,0.07,meteohub,2014-02-16 04:38:00,
2014-02-15 23:40:00,28.8,21.6,29.76,West,276,11.0,22.0,74,0.00,,,0.07,meteohub,2014-02-16 04:40:00,
2014-02-15 23:41:00,28.8,21.6,29.76,WNW,292,7.0,20.0,74,0.00,,,0.07,meteohub,2014-02-16 04:41:00,
2014-02-15 23:42:00,28.8,21.6,29.76,WNW,300,8.0,20.0,74,0.00,,,0.07,meteohub,2014-02-16 04:42:00,
2014-02-15 23:43:00,28.8,21.6,29.76,WNW,284,2.0,20.0,74,0.00,,,0.07,meteohub,2014-02-16 04:43:00,
2014-02-15 23:45:00,28.8,21.9,29.76,West,267,3.0,18.0,75,0.00,,,0.07,meteohub,2014-02-16 04:45:00,
2014-02-15 23:46:00,28.8,21.9,29.76,West,262,3.0,18.0,75,0.00,,,0.07,meteohub,2014-02-16 04:46:00,
2014-02-15 23:47:00,28.6,21.7,29.77,WNW,292,10.0,18.0,75,0.00,,,0.07,meteohub,2014-02-16 04:47:00,
2014-02-15 23:48:00,28.6,21.7,29.76,West,263,1.0,18.0,75,0.00,,,0.07,meteohub,2014-02-16 04:48:00,
2014-02-15 23:51:00,28.6,21.7,29.76,NW,310,12.0,20.0,75,0.00,,,0.07,meteohub,2014-02-16 04:51:00,
2014-02-15 23:52:00,28.6,21.7,29.76,NW,316,5.0,20.0,75,0.00,,,0.07,meteohub,2014-02-16 04:52:00,
2014-02-15 23:53:00,28.6,21.4,29.76,WNW,293,8.0,20.0,74,0.00,,,0.07,meteohub,2014-02-16 04:53:00,
2014-02-15 23:57:00,28.6,21.0,29.77,WNW,295,9.0,20.0,73,0.00,,,0.07,meteohub,2014-02-16 04:57:00,
2014-02-15 23:58:00,28.6,21.0,29.77,WNW,289,11.0,20.0,73,0.00,,,0.07,meteohub,2014-02-16 04:58:00,